Time,TemperatureF,DewpointF,PressureIn,WindDirection,WindDirectionDegrees,WindSpeedMPH,WindSpeedGustMPH,Humidity,HourlyPrecipIn,Conditions,Clouds,dailyrainin,SolarRadiationWatts/m^2,SoftwareType,DateUTC
2013-08-21 00:02:00,77.7,67.5,29.80,SW,216,9.0,11.0,71,0.00,,,0.00,0,WeatherCatV1.21B27,2013-08-21 05:02:00,
2013-08-21 00:03:00,77.7,67.5,29.80,SSW,200,1.0,11.0,71,0.00,,,0.00,0,WeatherCatV1.21B27,2013-08-21 05:03:00,
2013-08-21 00:07:00,77.6,67.0,29.80,SSW,198,2.0,9.0,70,0.00,,,0.00,0,WeatherCatV1.21B27,2013-08-21 05:07:00,
2013-08-21 00:08:00,77.6,67.0,29.80,SSE,149,7.0,9.0,70,0.00,,,0.00,0,WeatherCatV1.21B27,2013-08-21 05:08:00,
2013-08-21 00:09:00,77.6,67.0,29.80,South,187,9.0,14.0,70,0.00,,,0.00,0,WeatherCatV1.21B27,2013-08-21 05:09:00,
2013-08-21 00:12:00,77.6,67.0,29.80,SSW,192,5.0,12.0,70,0.00,,,0.00,0,WeatherCatV1.21B27,2013-08-21 05:12:00,
2013-08-21 00:13:00,77.6,67.0,29.80,SSW,213,5.0,14.0,70,0.00,,,0.00,0,WeatherCatV1.21B27,2013-08-21 05:13:00,
2013-08-21 00:14:00,77.6,67.0,29.81,SW,232,4.0,14.0,70,0.00,,,0.00,0,WeatherCatV1.21B27,2013-08-21 05:14:00,
2013-08-21 00:17:00,77.6,67.0,29.81,South,183,3.0,10.0,70,0.00,,,0.00,0,WeatherCatV1.21B27,2013-08-21 05:17:00,
2013-08-21 00:18:00,77.6,67.0,29.81,SSE,166,7.0,13.0,70,0.00,,,0.00,0,WeatherCatV1.21B27,2013-08-21 05:18:00,
2013-08-21 00:19:00,77.6,67.0,29.81,SW,214,9.0,13.0,70,0.00,,,0.00,0,WeatherCatV1.21B27,2013-08-21 05:19:00,
2013-08-21 00:22:00,77.6,67.0,29.81,SSW,213,1.0,10.0,70,0.00,,,0.00,0,WeatherCatV1.21B27,2013-08-21 05:22:00,
2013-08-21 00:23:00,77.6,67.0,29.81,SW,214,2.0,10.0,70,0.00,,,0.00,0,WeatherCatV1.21B27,2013-08-21 05:23:00,
2013-08-21 00:24:00,77.5,66.9,29.81,SSW,198,6.0,8.0,70,0.00,,,0.00,0,WeatherCatV1.21B27,2013-08-21 05:24:00,
2013-08-21 00:28:00,77.4,66.8,29.81,South,188,1.0,17.0,70,0.00,,,0.00,0,WeatherCatV1.21B27,2013-08-21 05:28:00,
2013-08-21 00:29:00,77.4,66.8,29.81,SW,215,19.0,20.0,70,0.00,,,0.00,0,WeatherCatV1.21B27,2013-08-21 05:29:00,
2013-08-21 00:33:00,77.3,66.7,29.81,South,180,4.0,13.0,70,0.00,,,0.00,0,WeatherCatV1.21B27,2013-08-21 05:33:00,
2013-08-21 00:34:00,77.3,67.1,29.81,SSW,205,6.0,7.0,71,0.00,,,0.00,0,WeatherCatV1.21B27,2013-08-21 05:34:00,
2013-08-21 00:38:00,77.1,66.9,29.81,SW,232,3.0,11.0,71,0.00,,,0.00,0,WeatherCatV1.21B27,2013-08-21 05:38:00,
2013-08-21 00:39:00,77.1,66.9,29.82,SSE,155,7.0,11.0,71,0.00,,,0.00,0,WeatherCatV1.21B27,2013-08-21 05:39:00,
2013-08-21 00:43:00,77.1,66.9,29.82,South,184,7.0,11.0,71,0.00,,,0.00,0,WeatherCatV1.21B27,2013-08-21 05:43:00,
2013-08-21 00:44:00,77.1,66.9,29.81,SSW,202,16.0,16.0,71,0.00,,,0.00,0,WeatherCatV1.21B27,2013-08-21 05:44:00,
2013-08-21 00:45:00,77.0,66.9,29.82,SSW,194,5.0,16.0,71,0.00,,,0.00,0,WeatherCatV1.21B27,2013-08-21 05:45:00,
2013-08-21 00:48:00,77.0,66.9,29.81,SW,232,9.0,14.0,71,0.00,,,0.00,0,WeatherCatV1.21B27,2013-08-21 05:48:00,
2013-08-21 00:49:00,77.0,66.9,29.81,SW,228,2.0,13.0,71,0.00,,,0.00,0,WeatherCatV1.21B27,2013-08-21 05:49:00,
2013-08-21 00:50:00,77.0,66.9,29.82,SSW,209,6.0,13.0,71,0.00,,,0.00,0,WeatherCatV1.21B27,2013-08-21 05:50:00,
2013-08-21 00:53:00,76.9,66.8,29.81,SSW,205,6.0,10.0,71,0.00,,,0.00,0,WeatherCatV1.21B27,2013-08-21 05:53:00,
2013-08-21 00:54:00,76.8,66.7,29.82,SW,227,12.0,14.0,71,0.00,,,0.00,0,WeatherCatV1.21B27,2013-08-21 05:54:00,
2013-08-21 00:55:00,76.8,67.1,29.82,South,184,5.0,14.0,72,0.00,,,0.00,0,WeatherCatV1.21B27,2013-08-21 05:55:00,
2013-08-21 00:58:00,76.7,67.0,29.81,SSW,208,4.0,10.0,72,0.00,,,0.00,0,WeatherCatV1.21B27,2013-08-21 05:58:00,
2013-08-21 00:59:00,76.7,67.0,29.81,SSW,206,12.0,12.0,72,0.00,,,0.00,0,WeatherCatV1.21B27,2013-08-21 05:59:00,
2013-08-21 01:00:00,76.7,67.0,29.81,SSE,163,7.0,12.0,72,0.00,,,0.00,0,WeatherCatV1.21B27,2013-08-21 06:00:00,
2013-08-21 01:03:00,76.6,66.9,29.81,SSE,149,0.0,10.0,72,0.00,,,0.00,0,WeatherCatV1.21B27,2013-08-21 06:03:00,
2013-08-21 01:04:00,76.6,66.9,29.81,SSE,149,0.0,10.0,72,0.00,,,0.00,0,WeatherCatV1.21B27,2013-08-21 06:04:00,
2013-08-21 01:05:00,76.6,66.9,29.82,SSE,155,3.0,4.0,72,0.00,,,0.00,0,WeatherCatV1.21B27,2013-08-21 06:05:00,
2013-08-21 01:08:00,76.4,66.7,29.82,South,169,2.0,18.0,72,0.00,,,0.00,0,WeatherCatV1.21B27,2013-08-21 06:08:00,
2013-08-21 01:09:00,76.3,67.0,29.82,SSW,211,6.0,18.0,73,0.00,,,0.00,0,WeatherCatV1.21B27,2013-08-21 06:09:00,
2013-08-21 01:10:00,76.3,67.0,29.82,SSW,200,9.0,18.0,73,0.00,,,0.00,0,WeatherCatV1.21B27,2013-08-21 06:10:00,
2013-08-21 01:12:00,76.3,67.0,29.82,SSE,152,6.0,10.0,73,0.00,,,0.00,0,WeatherCatV1.21B27,2013-08-21 06:12:00,
2013-08-21 01:14:00,76.2,66.9,29.82,South,183,11.0,12.0,73,0.00,,,0.00,0,WeatherCatV1.21B27,2013-08-21 06:14:00,
2013-08-21 01:15:00,76.3,67.0,29.82,South,186,1.0,10.0,73,0.00,,,0.00,0,WeatherCatV1.21B27,2013-08-21 06:15:00,
2013-08-21 01:17:00,76.2,66.9,29.82,WSW,238,1.0,16.0,73,0.00,,,0.00,0,WeatherCatV1.21B27,2013-08-21 06:17:00,
2013-08-21 01:19:00,76.2,66.9,29.82,WSW,248,11.0,11.0,73,0.00,,,0.00,0,WeatherCatV1.21B27,2013-08-21 06:19:00,
2013-08-21 01:20:00,76.2,66.9,29.82,SSW,198,5.0,11.0,73,0.00,,,0.00,0,WeatherCatV1.21B27,2013-08-21 06:20:00,
2013-08-21 01:21:00,76.2,66.9,29.82,SSE,160,2.0,15.0,73,0.00,,,0.00,0,WeatherCatV1.21B27,2013-08-21 06:21:00,
2013-08-21 01:22:00,76.1,66.8,29.82,SSW,205,11.0,15.0,73,0.00,,,0.00,0,WeatherCatV1.21B27,2013-08-21 06:22:00,
2013-08-21 01:24:00,76.1,66.8,29.82,SW,225,4.0,12.0,73,0.00,,,0.00,0,WeatherCatV1.21B27,2013-08-21 06:24:00,
2013-08-21 01:25:00,76.1,66.8,29.82,SSW,213,3.0,9.0,73,0.00,,,0.00,0,WeatherCatV1.21B27,2013-08-21 06:25:00,
2013-08-21 01:26:00,76.1,66.8,29.82,South,175,10.0,14.0,73,0.00,,,0.00,0,WeatherCatV1.21B27,2013-08-21 06:26:00,
2013-08-21 01:27:00,76.1,66.8,29.82,South,191,5.0,14.0,73,0.00,,,0.00,0,WeatherCatV1.21B27,2013-08-21 06:27:00,
2013-08-21 01:29:00,76.0,66.7,29.82,South,186,2.0,11.0,73,0.00,,,0.00,0,WeatherCatV1.21B27,2013-08-21 06:29:00,
2013-08-21 01:30:00,76.0,66.7,29.82,SSE,165,4.0,7.0,73,0.00,,,0.00,0,WeatherCatV1.21B27,2013-08-21 06:30:00,
2013-08-21 01:31:00,76.0,66.7,29.82,SSW,202,4.0,7.0,73,0.00,,,0.00,0,WeatherCatV1.21B27,2013-08-21 06:31:00,
2013-08-21 01:32:00,76.0,66.7,29.82,South,188,0.0,12.0,73,0.00,,,0.00,0,WeatherCatV1.21B27,2013-08-21 06:32:00,
2013-08-21 01:34:00,75.9,66.6,29.82,SSW,209,9.0,16.0,73,0.00,,,0.00,0,WeatherCatV1.21B27,2013-08-21 06:34:00,
2013-08-21 01:35:00,75.9,66.6,29.83,SSW,194,10.0,16.0,73,0.00,,,0.00,0,WeatherCatV1.21B27,2013-08-21 06:35:00,
2013-08-21 01:37:00,75.9,66.6,29.82,WSW,240,7.0,11.0,73,0.00,,,0.00,0,WeatherCatV1.21B27,2013-08-21 06:37:00,
2013-08-21 01:38:00,75.9,66.6,29.82,WSW,238,5.0,10.0,73,0.00,,,0.00,0,WeatherCatV1.21B27,2013-08-21 06:38:00,
2013-08-21 01:40:00,75.9,66.6,29.82,SSW,195,3.0,11.0,73,0.00,,,0.00,0,WeatherCatV1.21B27,2013-08-21 06:40:00,
2013-08-21 01:41:00,75.9,66.6,29.82,SW,215,7.0,14.0,73,0.00,,,0.00,0,WeatherCatV1.21B27,2013-08-21 06:41:00,
2013-08-21 01:42:00,75.8,66.5,29.82,SW,215,3.0,14.0,73,0.00,,,0.00,0,WeatherCatV1.21B27,2013-08-21 06:42:00,
2013-08-21 01:43:00,75.8,66.5,29.82,SSW,194,3.0,10.0,73,0.00,,,0.00,0,WeatherCatV1.21B27,2013-08-21 06:43:00,
2013-08-21 01:45:00,75.7,66.4,29.83,SSW,194,3.0,9.0,73,0.00,,,0.00,0,WeatherCatV1.21B27,2013-08-21 06:45:00,
2013-08-21 01:46:00,75.7,66.4,29.83,SSW,201,4.0,10.0,73,0.00,,,0.00,0,WeatherCatV1.21B27,2013-08-21 06:46:00,
2013-08-21 01:47:00,75.7,66.4,29.83,SSW,202,5.0,11.0,73,0.00,,,0.00,0,WeatherCatV1.21B27,2013-08-21 06:47:00,
2013-08-21 01:48:00,75.7,66.4,29.82,South,184,5.0,13.0,73,0.00,,,0.00,0,WeatherCatV1.21B27,2013-08-21 06:48:00,
2013-08-21 01:50:00,75.6,66.3,29.82,SW,219,4.0,10.0,73,0.00,,,0.00,0,WeatherCatV1.21B27,2013-08-21 06:50:00,
2013-08-21 01:51:00,75.6,66.3,29.82,SW,222,2.0,15.0,73,0.00,,,0.00,0,WeatherCatV1.21B27,2013-08-21 06:51:00,
2013-08-21 01:52:00,75.5,66.2,29.82,South,186,6.0,15.0,73,0.00,,,0.00,0,WeatherCatV1.21B27,2013-08-21 06:52:00,
2013-08-21 01:53:00,75.5,66.6,29.82,SSE,162,3.0,8.0,74,0.00,,,0.00,0,WeatherCatV1.21B27,2013-08-21 06:53:00,
2013-08-21 01:55:00,75.3,66.4,29.82,South,175,5.0,11.0,74,0.00,,,0.00,0,WeatherCatV1.21B27,2013-08-21 06:55:00,
2013-08-21 01:56:00,75.4,66.5,29.82,SW,217,11.0,11.0,74,0.00,,,0.00,0,WeatherCatV1.21B27,2013-08-21 06:56:00,
2013-08-21 01:57:00,75.3,66.4,29.82,SSW,198,1.0,11.0,74,0.00,,,0.00,0,WeatherCatV1.21B27,2013-08-21 06:57:00,
2013-08-21 01:58:00,75.2,66.3,29.82,SSW,198,4.0,12.0,74,0.00,,,0.00,0,WeatherCatV1.21B27,2013-08-21 06:58:00,
2013-08-21 02:00:00,75.2,66.3,29.82,South,187,6.0,12.0,74,0.00,,,0.00,0,WeatherCatV1.21B27,2013-08-21 07:00:00,
2013-08-21 02:01:00,75.2,66.3,29.82,South,182,5.0,12.0,74,0.00,,,0.00,0,WeatherCatV1.21B27,2013-08-21 07:01:00,
2013-08-21 02:02:00,75.1,66.2,29.82,South,179,4.0,12.0,74,0.00,,,0.00,0,WeatherCatV1.21B27,2013-08-21 07:02:00,
2013-08-21 02:04:00,75.0,66.1,29.82,SSW,213,6.0,10.0,74,0.00,,,0.00,0,WeatherCatV1.21B27,2013-08-21 07:04:00,
2013-08-21 02:05:00,74.9,66.4,29.82,SW,220,4.0,10.0,75,0.00,,,0.00,0,WeatherCatV1.21B27,2013-08-21 07:05:00,
2013-08-21 02:06:00,74.8,66.3,29.82,SW,219,2.0,7.0,75,0.00,,,0.00,0,WeatherCatV1.21B27,2013-08-21 07:06:00,
2013-08-21 02:07:00,74.8,66.3,29.82,South,189,4.0,9.0,75,0.00,,,0.00,0,WeatherCatV1.21B27,2013-08-21 07:07:00,
2013-08-21 02:09:00,74.7,66.2,29.82,South,183,1.0,9.0,75,0.00,,,0.00,0,WeatherCatV1.21B27,2013-08-21 07:09:00,
2013-08-21 02:10:00,74.6,66.1,29.82,SSW,196,5.0,10.0,75,0.00,,,0.00,0,WeatherCatV1.21B27,2013-08-21 07:10:00,
2013-08-21 02:11:00,74.5,66.4,29.82,SSW,196,2.0,10.0,76,0.00,,,0.00,0,WeatherCatV1.21B27,2013-08-21 07:11:00,
2013-08-21 02:12:00,74.4,66.3,29.82,South,183,6.0,6.0,76,0.00,,,0.00,0,WeatherCatV1.21B27,2013-08-21 07:12:00,
2013-08-21 02:14:00,74.3,66.2,29.82,South,186,4.0,7.0,76,0.00,,,0.00,0,WeatherCatV1.21B27,2013-08-21 07:14:00,
2013-08-21 02:17:00,74.2,66.1,29.82,South,172,4.0,6.0,76,0.00,,,0.00,0,WeatherCatV1.21B27,2013-08-21 07:17:00,
2013-08-21 02:19:00,74.0,65.9,29.82,South,175,2.0,9.0,76,0.00,,,0.00,0,WeatherCatV1.21B27,2013-08-21 07:19:00,
2013-08-21 02:22:00,74.0,65.9,29.82,SSW,211,7.0,14.0,76,0.00,,,0.00,0,WeatherCatV1.21B27,2013-08-21 07:22:00,
2013-08-21 02:23:00,74.0,65.9,29.82,SW,214,6.0,14.0,76,0.00,,,0.00,0,WeatherCatV1.21B27,2013-08-21 07:23:00,
2013-08-21 02:24:00,74.0,65.9,29.82,SSW,204,2.0,13.0,76,0.00,,,0.00,0,WeatherCatV1.21B27,2013-08-21 07:24:00,
2013-08-21 02:27:00,73.8,66.1,29.82,SSW,207,7.0,9.0,77,0.00,,,0.00,0,WeatherCatV1.21B27,2013-08-21 07:27:00,
2013-08-21 02:28:00,73.8,66.1,29.82,South,180,3.0,11.0,77,0.00,,,0.00,0,WeatherCatV1.21B27,2013-08-21 07:28:00,
2013-08-21 02:29:00,73.8,66.1,29.82,SSW,198,5.0,11.0,77,0.00,,,0.00,0,WeatherCatV1.21B27,2013-08-21 07:29:00,
2013-08-21 02:32:00,73.8,66.1,29.82,South,180,4.0,9.0,77,0.00,,,0.00,0,WeatherCatV1.21B27,2013-08-21 07:32:00,
2013-08-21 02:33:00,73.8,66.1,29.82,SSW,199,5.0,7.0,77,0.00,,,0.00,0,WeatherCatV1.21B27,2013-08-21 07:33:00,
2013-08-21 02:34:00,73.7,66.0,29.81,SW,217,4.0,7.0,77,0.00,,,0.00,0,WeatherCatV1.21B27,2013-08-21 07:34:00,
2013-08-21 02:37:00,73.6,65.9,29.81,SSW,213,6.0,12.0,77,0.00,,,0.00,0,WeatherCatV1.21B27,2013-08-21 07:37:00,
2013-08-21 02:38:00,73.6,65.9,29.81,SSW,207,4.0,12.0,77,0.00,,,0.00,0,WeatherCatV1.21B27,2013-08-21 07:38:00,
2013-08-21 02:39:00,73.6,65.9,29.81,SSW,198,5.0,12.0,77,0.00,,,0.00,0,WeatherCatV1.21B27,2013-08-21 07:39:00,
2013-08-21 02:43:00,73.5,65.8,29.81,SW,218,4.0,10.0,77,0.00,,,0.00,0,WeatherCatV1.21B27,2013-08-21 07:43:00,
2013-08-21 02:44:00,73.5,65.8,29.81,South,188,5.0,10.0,77,0.00,,,0.00,0,WeatherCatV1.21B27,2013-08-21 07:44:00,
2013-08-21 02:48:00,73.4,65.7,29.81,SSW,209,9.0,15.0,77,0.00,,,0.00,0,WeatherCatV1.21B27,2013-08-21 07:48:00,
2013-08-21 02:49:00,73.4,65.7,29.81,SSW,205,4.0,13.0,77,0.00,,,0.00,0,WeatherCatV1.21B27,2013-08-21 07:49:00,
2013-08-21 02:50:00,73.4,65.7,29.81,South,175,6.0,13.0,77,0.00,,,0.00,0,WeatherCatV1.21B27,2013-08-21 07:50:00,
2013-08-21 02:53:00,73.4,65.7,29.81,South,188,3.0,12.0,77,0.00,,,0.00,0,WeatherCatV1.21B27,2013-08-21 07:53:00,
2013-08-21 02:54:00,73.3,65.6,29.81,South,188,5.0,6.0,77,0.00,,,0.00,0,WeatherCatV1.21B27,2013-08-21 07:54:00,
2013-08-21 02:55:00,73.3,65.6,29.81,South,170,2.0,9.0,77,0.00,,,0.00,0,WeatherCatV1.21B27,2013-08-21 07:55:00,
2013-08-21 02:58:00,73.2,65.5,29.81,SSW,207,3.0,13.0,77,0.00,,,0.00,0,WeatherCatV1.21B27,2013-08-21 07:58:00,
2013-08-21 02:59:00,73.2,65.5,29.81,SSW,193,5.0,13.0,77,0.00,,,0.00,0,WeatherCatV1.21B27,2013-08-21 07:59:00,
2013-08-21 03:00:00,73.2,65.5,29.81,SSE,157,4.0,14.0,77,0.00,,,0.00,0,WeatherCatV1.21B27,2013-08-21 08:00:00,
2013-08-21 03:01:00,73.2,65.5,29.81,SSW,200,6.0,14.0,77,0.00,,,0.00,0,WeatherCatV1.21B27,2013-08-21 08:01:00,
2013-08-21 03:03:00,73.2,65.5,29.81,South,177,4.0,13.0,77,0.00,,,0.00,0,WeatherCatV1.21B27,2013-08-21 08:03:00,
2013-08-21 03:04:00,73.1,65.4,29.81,SSW,205,2.0,13.0,77,0.00,,,0.00,0,WeatherCatV1.21B27,2013-08-21 08:04:00,
2013-08-21 03:05:00,73.1,65.4,29.81,South,180,5.0,12.0,77,0.00,,,0.00,0,WeatherCatV1.21B27,2013-08-21 08:05:00,
2013-08-21 03:06:00,73.1,65.4,29.81,SW,214,2.0,12.0,77,0.00,,,0.00,0,WeatherCatV1.21B27,2013-08-21 08:06:00,
2013-08-21 03:08:00,73.1,65.4,29.81,SSE,152,3.0,16.0,77,0.00,,,0.00,0,WeatherCatV1.21B27,2013-08-21 08:08:00,
2013-08-21 03:09:00,73.1,65.4,29.81,South,173,9.0,16.0,77,0.00,,,0.00,0,WeatherCatV1.21B27,2013-08-21 08:09:00,
2013-08-21 03:10:00,73.1,65.4,29.81,South,190,4.0,9.0,77,0.00,,,0.00,0,WeatherCatV1.21B27,2013-08-21 08:10:00,
2013-08-21 03:11:00,73.1,65.4,29.80,South,187,5.0,10.0,77,0.00,,,0.00,0,WeatherCatV1.21B27,2013-08-21 08:11:00,
2013-08-21 03:13:00,73.1,65.4,29.81,South,175,4.0,15.0,77,0.00,,,0.00,0,WeatherCatV1.21B27,2013-08-21 08:13:00,
2013-08-21 03:14:00,73.1,65.4,29.81,South,171,5.0,7.0,77,0.00,,,0.00,0,WeatherCatV1.21B27,2013-08-21 08:14:00,
2013-08-21 03:15:00,73.1,65.4,29.80,SW,218,5.0,7.0,77,0.00,,,0.00,0,WeatherCatV1.21B27,2013-08-21 08:15:00,
2013-08-21 03:16:00,73.0,65.3,29.80,SSW,205,10.0,11.0,77,0.00,,,0.00,0,WeatherCatV1.21B27,2013-08-21 08:16:00,
2013-08-21 03:19:00,73.0,65.3,29.80,SW,221,3.0,7.0,77,0.00,,,0.00,0,WeatherCatV1.21B27,2013-08-21 08:19:00,
2013-08-21 03:20:00,72.9,65.2,29.81,South,175,5.0,11.0,77,0.00,,,0.00,0,WeatherCatV1.21B27,2013-08-21 08:20:00,
2013-08-21 03:21:00,72.9,65.2,29.81,SSW,196,10.0,11.0,77,0.00,,,0.00,0,WeatherCatV1.21B27,2013-08-21 08:21:00,
2013-08-21 03:22:00,72.9,65.2,29.80,SW,233,8.0,11.0,77,0.00,,,0.00,0,WeatherCatV1.21B27,2013-08-21 08:22:00,
2013-08-21 03:24:00,72.8,65.5,29.80,South,178,5.0,11.0,78,0.00,,,0.00,0,WeatherCatV1.21B27,2013-08-21 08:24:00,
2013-08-21 03:25:00,72.7,65.4,29.80,South,185,12.0,12.0,78,0.00,,,0.00,0,WeatherCatV1.21B27,2013-08-21 08:25:00,
2013-08-21 03:26:00,72.7,65.4,29.80,SSW,198,3.0,12.0,78,0.00,,,0.00,0,WeatherCatV1.21B27,2013-08-21 08:26:00,
2013-08-21 03:27:00,72.7,65.4,29.80,SSW,198,8.0,12.0,78,0.00,,,0.00,0,WeatherCatV1.21B27,2013-08-21 08:27:00,
2013-08-21 03:29:00,72.7,65.4,29.80,SSW,194,9.0,12.0,78,0.00,,,0.00,0,WeatherCatV1.21B27,2013-08-21 08:29:00,
2013-08-21 03:30:00,72.7,65.4,29.80,SSW,211,13.0,13.0,78,0.00,,,0.00,0,WeatherCatV1.21B27,2013-08-21 08:30:00,
2013-08-21 03:31:00,72.7,65.4,29.80,SSW,209,5.0,13.0,78,0.00,,,0.00,0,WeatherCatV1.21B27,2013-08-21 08:31:00,
2013-08-21 03:32:00,72.8,65.5,29.80,SSW,211,0.0,13.0,78,0.00,,,0.00,0,WeatherCatV1.21B27,2013-08-21 08:32:00,
2013-08-21 03:34:00,72.7,65.4,29.80,SSW,205,7.0,9.0,78,0.00,,,0.00,0,WeatherCatV1.21B27,2013-08-21 08:34:00,
2013-08-21 03:35:00,72.7,65.4,29.80,SSW,203,4.0,9.0,78,0.00,,,0.00,0,WeatherCatV1.21B27,2013-08-21 08:35:00,
2013-08-21 03:36:00,72.6,65.3,29.79,SSW,197,11.0,13.0,78,0.00,,,0.00,0,WeatherCatV1.21B27,2013-08-21 08:36:00,
2013-08-21 03:37:00,72.6,65.3,29.80,SSW,207,10.0,13.0,78,0.00,,,0.00,0,WeatherCatV1.21B27,2013-08-21 08:37:00,
2013-08-21 03:39:00,72.6,65.3,29.79,SSW,202,3.0,8.0,78,0.00,,,0.00,0,WeatherCatV1.21B27,2013-08-21 08:39:00,
2013-08-21 03:40:00,72.6,65.3,29.79,SW,221,9.0,11.0,78,0.00,,,0.00,0,WeatherCatV1.21B27,2013-08-21 08:40:00,
2013-08-21 03:42:00,72.6,65.3,29.79,SSW,211,9.0,13.0,78,0.00,,,0.00,0,WeatherCatV1.21B27,2013-08-21 08:42:00,
2013-08-21 03:43:00,72.6,65.3,29.79,South,189,3.0,12.0,78,0.00,,,0.00,0,WeatherCatV1.21B27,2013-08-21 08:43:00,
2013-08-21 03:45:00,72.5,65.2,29.79,SSW,192,9.0,9.0,78,0.00,,,0.00,0,WeatherCatV1.21B27,2013-08-21 08:45:00,
2013-08-21 03:47:00,72.5,65.2,29.79,SSW,203,4.0,5.0,78,0.00,,,0.00,0,WeatherCatV1.21B27,2013-08-21 08:47:00,
2013-08-21 03:48:00,72.4,65.1,29.79,SSE,166,5.0,10.0,78,0.00,,,0.00,0,WeatherCatV1.21B27,2013-08-21 08:48:00,
2013-08-21 03:50:00,72.4,65.1,29.79,SSW,195,4.0,11.0,78,0.00,,,0.00,0,WeatherCatV1.21B27,2013-08-21 08:50:00,
2013-08-21 03:52:00,72.4,65.1,29.79,South,190,2.0,6.0,78,0.00,,,0.00,0,WeatherCatV1.21B27,2013-08-21 08:52:00,
2013-08-21 03:53:00,72.3,65.0,29.79,SSW,196,9.0,13.0,78,0.00,,,0.00,0,WeatherCatV1.21B27,2013-08-21 08:53:00,
2013-08-21 03:55:00,72.3,65.0,29.80,SSW,198,9.0,18.0,78,0.00,,,0.00,0,WeatherCatV1.21B27,2013-08-21 08:55:00,
2013-08-21 03:56:00,72.3,65.0,29.80,SSW,195,7.0,18.0,78,0.00,,,0.00,0,WeatherCatV1.21B27,2013-08-21 08:56:00,
2013-08-21 03:57:00,72.3,65.0,29.80,SSW,199,5.0,7.0,78,0.00,,,0.00,0,WeatherCatV1.21B27,2013-08-21 08:57:00,
2013-08-21 03:58:00,72.3,65.0,29.80,SSW,206,0.0,13.0,78,0.00,,,0.00,0,WeatherCatV1.21B27,2013-08-21 08:58:00,
2013-08-21 04:00:00,72.3,65.0,29.79,South,184,3.0,13.0,78,0.00,,,0.00,0,WeatherCatV1.21B27,2013-08-21 09:00:00,
2013-08-21 04:01:00,72.2,64.9,29.79,South,180,2.0,13.0,78,0.00,,,0.00,0,WeatherCatV1.21B27,2013-08-21 09:01:00,
2013-08-21 04:02:00,72.2,64.9,29.79,SSW,202,3.0,12.0,78,0.00,,,0.00,0,WeatherCatV1.21B27,2013-08-21 09:02:00,
2013-08-21 04:03:00,72.1,65.2,29.80,SSW,204,9.0,12.0,79,0.00,,,0.00,0,WeatherCatV1.21B27,2013-08-21 09:03:00,
2013-08-21 04:05:00,72.1,65.2,29.80,South,185,9.0,13.0,79,0.00,,,0.00,0,WeatherCatV1.21B27,2013-08-21 09:05:00,
2013-08-21 04:06:00,72.1,65.2,29.80,South,189,14.0,14.0,79,0.00,,,0.00,0,WeatherCatV1.21B27,2013-08-21 09:06:00,
2013-08-21 04:07:00,72.1,65.2,29.80,SSW,209,9.0,14.0,79,0.00,,,0.00,0,WeatherCatV1.21B27,2013-08-21 09:07:00,
2013-08-21 04:08:00,72.1,65.2,29.79,SSW,209,6.0,12.0,79,0.00,,,0.00,0,WeatherCatV1.21B27,2013-08-21 09:08:00,
2013-08-21 04:11:00,72.0,65.1,29.79,SSW,200,6.0,14.0,79,0.00,,,0.00,0,WeatherCatV1.21B27,2013-08-21 09:11:00,
2013-08-21 04:12:00,71.9,65.0,29.79,SW,223,5.0,11.0,79,0.00,,,0.00,0,WeatherCatV1.21B27,2013-08-21 09:12:00,
2013-08-21 04:13:00,71.9,65.0,29.80,West,265,2.0,11.0,79,0.00,,,0.00,0,WeatherCatV1.21B27,2013-08-21 09:13:00,
2013-08-21 04:16:00,71.9,65.0,29.79,South,179,13.0,14.0,79,0.00,,,0.00,0,WeatherCatV1.21B27,2013-08-21 09:16:00,
2013-08-21 04:17:00,71.9,65.0,29.79,South,191,1.0,14.0,79,0.00,,,0.00,0,WeatherCatV1.21B27,2013-08-21 09:17:00,
2013-08-21 04:19:00,71.8,64.9,29.80,SW,225,11.0,14.0,79,0.00,,,0.00,0,WeatherCatV1.21B27,2013-08-21 09:19:00,
2013-08-21 04:21:00,71.7,64.8,29.80,South,190,0.0,7.0,79,0.00,,,0.00,0,WeatherCatV1.21B27,2013-08-21 09:21:00,
2013-08-21 04:22:00,71.7,64.8,29.79,South,190,1.0,4.0,79,0.00,,,0.00,0,WeatherCatV1.21B27,2013-08-21 09:22:00,
2013-08-21 04:24:00,71.6,64.7,29.80,South,190,0.0,5.0,79,0.00,,,0.00,0,WeatherCatV1.21B27,2013-08-21 09:24:00,
2013-08-21 04:26:00,71.5,64.6,29.79,SSW,196,5.0,17.0,79,0.00,,,0.00,0,WeatherCatV1.21B27,2013-08-21 09:26:00,
2013-08-21 04:27:00,71.5,64.6,29.80,SSE,168,7.0,17.0,79,0.00,,,0.00,0,WeatherCatV1.21B27,2013-08-21 09:27:00,
2013-08-21 04:28:00,71.5,64.6,29.79,South,186,9.0,12.0,79,0.00,,,0.00,0,WeatherCatV1.21B27,2013-08-21 09:28:00,
2013-08-21 04:29:00,71.5,65.0,29.79,WSW,239,9.0,12.0,80,0.00,,,0.00,0,WeatherCatV1.21B27,2013-08-21 09:29:00,
2013-08-21 04:31:00,71.5,65.0,29.79,South,187,5.0,11.0,80,0.00,,,0.00,0,WeatherCatV1.21B27,2013-08-21 09:31:00,
2013-08-21 04:32:00,71.5,65.0,29.79,SW,215,2.0,11.0,80,0.00,,,0.00,0,WeatherCatV1.21B27,2013-08-21 09:32:00,
2013-08-21 04:33:00,71.4,64.9,29.79,South,171,7.0,7.0,80,0.00,,,0.00,0,WeatherCatV1.21B27,2013-08-21 09:33:00,
2013-08-21 04:34:00,71.4,64.9,29.79,South,187,5.0,10.0,80,0.00,,,0.00,0,WeatherCatV1.21B27,2013-08-21 09:34:00,
2013-08-21 04:36:00,71.3,64.8,29.79,WSW,254,3.0,9.0,80,0.00,,,0.00,0,WeatherCatV1.21B27,2013-08-21 09:36:00,
2013-08-21 04:37:00,71.3,64.8,29.79,SSW,194,4.0,7.0,80,0.00,,,0.00,0,WeatherCatV1.21B27,2013-08-21 09:37:00,
2013-08-21 04:39:00,71.3,64.8,29.80,SSE,164,4.0,9.0,80,0.00,,,0.00,0,WeatherCatV1.21B27,2013-08-21 09:39:00,
2013-08-21 04:41:00,71.2,64.7,29.80,South,173,0.0,6.0,80,0.00,,,0.00,0,WeatherCatV1.21B27,2013-08-21 09:41:00,
2013-08-21 04:42:00,71.1,64.6,29.80,South,173,0.0,6.0,80,0.00,,,0.00,0,WeatherCatV1.21B27,2013-08-21 09:42:00,
2013-08-21 04:44:00,71.1,64.6,29.80,SSW,198,5.0,8.0,80,0.00,,,0.00,0,WeatherCatV1.21B27,2013-08-21 09:44:00,
2013-08-21 04:47:00,71.0,64.5,29.80,SW,218,0.0,3.0,80,0.00,,,0.00,0,WeatherCatV1.21B27,2013-08-21 09:47:00,
2013-08-21 04:49:00,70.9,64.8,29.81,SSW,200,2.0,9.0,81,0.00,,,0.00,0,WeatherCatV1.21B27,2013-08-21 09:49:00,
2013-08-21 04:50:00,70.9,64.8,29.80,SSW,201,1.0,9.0,81,0.00,,,0.00,0,WeatherCatV1.21B27,2013-08-21 09:50:00,
2013-08-21 04:52:00,70.9,64.8,29.81,SSW,200,0.0,4.0,81,0.00,,,0.00,0,WeatherCatV1.21B27,2013-08-21 09:52:00,
2013-08-21 04:53:00,70.9,64.8,29.81,SSW,200,6.0,6.0,81,0.00,,,0.00,0,WeatherCatV1.21B27,2013-08-21 09:53:00,
2013-08-21 04:54:00,70.8,64.7,29.81,SSW,200,0.0,6.0,81,0.00,,,0.00,0,WeatherCatV1.21B27,2013-08-21 09:54:00,
2013-08-21 04:55:00,70.8,64.7,29.81,SSW,201,0.0,3.0,81,0.00,,,0.00,0,WeatherCatV1.21B27,2013-08-21 09:55:00,
2013-08-21 04:57:00,70.8,64.7,29.81,South,173,3.0,8.0,81,0.00,,,0.00,0,WeatherCatV1.21B27,2013-08-21 09:57:00,
2013-08-21 04:58:00,70.8,64.7,29.81,South,172,1.0,8.0,81,0.00,,,0.00,0,WeatherCatV1.21B27,2013-08-21 09:58:00,
2013-08-21 05:00:00,70.8,64.7,29.81,South,173,0.0,3.0,81,0.00,,,0.00,0,WeatherCatV1.21B27,2013-08-21 10:00:00,
2013-08-21 05:02:00,70.7,64.6,29.81,South,173,0.0,2.0,81,0.00,,,0.00,0,WeatherCatV1.21B27,2013-08-21 10:02:00,
2013-08-21 05:03:00,70.6,64.5,29.81,South,173,2.0,2.0,81,0.00,,,0.00,0,WeatherCatV1.21B27,2013-08-21 10:03:00,
2013-08-21 05:05:00,70.6,64.5,29.81,South,173,2.0,5.0,81,0.00,,,0.00,0,WeatherCatV1.21B27,2013-08-21 10:05:00,
2013-08-21 05:07:00,70.5,64.4,29.81,South,175,0.0,5.0,81,0.00,,,0.00,0,WeatherCatV1.21B27,2013-08-21 10:07:00,
2013-08-21 05:08:00,70.5,64.4,29.82,South,175,0.0,5.0,81,0.00,,,0.00,0,WeatherCatV1.21B27,2013-08-21 10:08:00,
2013-08-21 05:10:00,70.4,64.3,29.82,South,175,0.0,4.0,81,0.00,,,0.00,0,WeatherCatV1.21B27,2013-08-21 10:10:00,
2013-08-21 05:12:00,70.4,64.6,29.82,South,175,0.0,3.0,82,0.00,,,0.00,0,WeatherCatV1.21B27,2013-08-21 10:12:00,
2013-08-21 05:13:00,70.3,64.2,29.82,South,175,2.0,4.0,81,0.00,,,0.00,0,WeatherCatV1.21B27,2013-08-21 10:13:00,
2013-08-21 05:15:00,70.2,64.4,29.82,South,175,0.0,1.0,82,0.00,,,0.00,0,WeatherCatV1.21B27,2013-08-21 10:15:00,
2013-08-21 05:16:00,70.2,64.4,29.82,South,175,0.0,1.0,82,0.00,,,0.00,0,WeatherCatV1.21B27,2013-08-21 10:16:00,
2013-08-21 05:17:00,70.2,64.4,29.82,South,175,0.0,3.0,82,0.00,,,0.00,0,WeatherCatV1.21B27,2013-08-21 10:17:00,
2013-08-21 05:18:00,70.1,64.3,29.82,South,175,0.0,3.0,82,0.00,,,0.00,0,WeatherCatV1.21B27,2013-08-21 10:18:00,
2013-08-21 05:20:00,70.0,64.2,29.82,South,175,0.0,1.0,82,0.00,,,0.00,0,WeatherCatV1.21B27,2013-08-21 10:20:00,
2013-08-21 05:21:00,70.0,64.2,29.82,South,175,0.0,1.0,82,0.00,,,0.00,0,WeatherCatV1.21B27,2013-08-21 10:21:00,
2013-08-21 05:22:00,69.9,64.1,29.82,South,175,0.0,3.0,82,0.00,,,0.00,0,WeatherCatV1.21B27,2013-08-21 10:22:00,
2013-08-21 05:23:00,69.9,64.1,29.82,South,174,4.0,6.0,82,0.00,,,0.00,0,WeatherCatV1.21B27,2013-08-21 10:23:00,
2013-08-21 05:25:00,69.9,64.5,29.82,South,174,1.0,4.0,83,0.00,,,0.00,0,WeatherCatV1.21B27,2013-08-21 10:25:00,
2013-08-21 05:26:00,69.9,64.5,29.82,South,174,0.0,4.0,83,0.00,,,0.00,0,WeatherCatV1.21B27,2013-08-21 10:26:00,
2013-08-21 05:27:00,69.9,64.5,29.82,South,173,0.0,2.0,83,0.00,,,0.00,0,WeatherCatV1.21B27,2013-08-21 10:27:00,
2013-08-21 05:28:00,69.9,64.5,29.83,South,175,3.0,4.0,83,0.00,,,0.00,0,WeatherCatV1.21B27,2013-08-21 10:28:00,
2013-08-21 05:30:00,69.9,64.5,29.83,South,175,1.0,3.0,83,0.00,,,0.00,0,WeatherCatV1.21B27,2013-08-21 10:30:00,
2013-08-21 05:31:00,69.9,64.5,29.83,South,175,0.0,3.0,83,0.00,,,0.00,0,WeatherCatV1.21B27,2013-08-21 10:31:00,
2013-08-21 05:33:00,69.9,64.1,29.82,South,175,0.0,1.0,82,0.00,,,0.00,0,WeatherCatV1.21B27,2013-08-21 10:33:00,
2013-08-21 05:34:00,69.9,64.1,29.82,South,175,1.0,1.0,82,0.00,,,0.00,0,WeatherCatV1.21B27,2013-08-21 10:34:00,
2013-08-21 05:36:00,69.9,64.1,29.83,South,175,0.0,2.0,82,0.00,,,0.00,0,WeatherCatV1.21B27,2013-08-21 10:36:00,
2013-08-21 05:38:00,69.9,64.1,29.83,South,175,0.0,1.0,82,0.00,,,0.00,0,WeatherCatV1.21B27,2013-08-21 10:38:00,
2013-08-21 05:39:00,69.9,64.1,29.83,South,175,0.0,0.0,82,0.00,,,0.00,0,WeatherCatV1.21B27,2013-08-21 10:39:00,
2013-08-21 05:41:00,69.9,64.1,29.83,South,175,0.0,2.0,82,0.00,,,0.00,0,WeatherCatV1.21B27,2013-08-21 10:41:00,
2013-08-21 05:43:00,69.8,64.4,29.83,South,175,0.0,1.0,83,0.00,,,0.00,0,WeatherCatV1.21B27,2013-08-21 10:43:00,
2013-08-21 05:44:00,69.7,64.3,29.83,South,175,0.0,1.0,83,0.00,,,0.00,0,WeatherCatV1.21B27,2013-08-21 10:44:00,
2013-08-21 05:46:00,69.7,64.3,29.83,South,175,0.0,0.0,83,0.00,,,0.00,0,WeatherCatV1.21B27,2013-08-21 10:46:00,
2013-08-21 05:47:00,69.6,64.2,29.83,South,175,0.0,0.0,83,0.00,,,0.00,0,WeatherCatV1.21B27,2013-08-21 10:47:00,
2013-08-21 05:48:00,69.5,64.1,29.83,South,175,0.0,2.0,83,0.00,,,0.00,0,WeatherCatV1.21B27,2013-08-21 10:48:00,
2013-08-21 05:49:00,69.5,64.1,29.83,South,175,0.0,2.0,83,0.00,,,0.00,0,WeatherCatV1.21B27,2013-08-21 10:49:00,
2013-08-21 05:51:00,69.4,64.0,29.83,South,175,0.0,1.0,83,0.00,,,0.00,0,WeatherCatV1.21B27,2013-08-21 10:51:00,
2013-08-21 05:52:00,69.4,64.0,29.83,South,175,2.0,3.0,83,0.00,,,0.00,0,WeatherCatV1.21B27,2013-08-21 10:52:00,
2013-08-21 05:53:00,69.4,64.0,29.84,South,175,0.0,3.0,83,0.00,,,0.00,0,WeatherCatV1.21B27,2013-08-21 10:53:00,
2013-08-21 05:54:00,69.4,64.0,29.84,South,175,0.0,0.0,83,0.00,,,0.00,0,WeatherCatV1.21B27,2013-08-21 10:54:00,
2013-08-21 05:56:00,69.3,63.9,29.84,South,175,0.0,3.0,83,0.00,,,0.00,0,WeatherCatV1.21B27,2013-08-21 10:56:00,
2013-08-21 05:57:00,69.3,63.9,29.84,South,175,2.0,3.0,83,0.00,,,0.00,0,WeatherCatV1.21B27,2013-08-21 10:57:00,
2013-08-21 05:58:00,69.3,63.9,29.84,South,175,0.0,0.0,83,0.00,,,0.00,0,WeatherCatV1.21B27,2013-08-21 10:58:00,
2013-08-21 05:59:00,69.3,63.9,29.84,South,175,3.0,3.0,83,0.00,,,0.00,0,WeatherCatV1.21B27,2013-08-21 10:59:00,
2013-08-21 06:01:00,69.4,64.0,29.84,South,175,0.0,3.0,83,0.00,,,0.00,0,WeatherCatV1.21B27,2013-08-21 11:01:00,
2013-08-21 06:02:00,69.4,64.0,29.84,South,175,1.0,1.0,83,0.00,,,0.00,0,WeatherCatV1.21B27,2013-08-21 11:02:00,
2013-08-21 06:04:00,69.4,64.0,29.84,South,175,0.0,3.0,83,0.00,,,0.00,0,WeatherCatV1.21B27,2013-08-21 11:04:00,
2013-08-21 06:06:00,69.4,64.0,29.84,South,175,0.0,3.0,83,0.00,,,0.00,0,WeatherCatV1.21B27,2013-08-21 11:06:00,
2013-08-21 06:07:00,69.4,64.0,29.84,South,175,3.0,4.0,83,0.00,,,0.00,0,WeatherCatV1.21B27,2013-08-21 11:07:00,
2013-08-21 06:09:00,69.4,64.0,29.84,South,175,3.0,3.0,83,0.00,,,0.00,0,WeatherCatV1.21B27,2013-08-21 11:09:00,
2013-08-21 06:11:00,69.4,64.0,29.84,South,175,0.0,0.0,83,0.00,,,0.00,0,WeatherCatV1.21B27,2013-08-21 11:11:00,
2013-08-21 06:12:00,69.4,64.0,29.84,South,175,0.0,0.0,83,0.00,,,0.00,0,WeatherCatV1.21B27,2013-08-21 11:12:00,
2013-08-21 06:14:00,69.4,64.0,29.84,South,175,0.0,0.0,83,0.00,,,0.00,0,WeatherCatV1.21B27,2013-08-21 11:14:00,
2013-08-21 06:16:00,69.3,63.9,29.84,South,175,0.0,0.0,83,0.00,,,0.00,0,WeatherCatV1.21B27,2013-08-21 11:16:00,
2013-08-21 06:17:00,69.3,63.9,29.84,South,175,0.0,0.0,83,0.00,,,0.00,0,WeatherCatV1.21B27,2013-08-21 11:17:00,
2013-08-21 06:19:00,69.2,63.8,29.84,South,175,0.0,0.0,83,0.00,,,0.00,0,WeatherCatV1.21B27,2013-08-21 11:19:00,
2013-08-21 06:20:00,69.2,63.8,29.84,South,175,0.0,0.0,83,0.00,,,0.00,0,WeatherCatV1.21B27,2013-08-21 11:20:00,
2013-08-21 06:22:00,69.1,63.7,29.84,South,175,0.0,0.0,83,0.00,,,0.00,0,WeatherCatV1.21B27,2013-08-21 11:22:00,
2013-08-21 06:24:00,69.0,63.6,29.85,South,175,0.0,0.0,83,0.00,,,0.00,0,WeatherCatV1.21B27,2013-08-21 11:24:00,
2013-08-21 06:25:00,69.0,63.6,29.85,South,175,0.0,0.0,83,0.00,,,0.00,0,WeatherCatV1.21B27,2013-08-21 11:25:00,
2013-08-21 06:27:00,69.0,63.6,29.84,South,175,0.0,0.0,83,0.00,,,0.00,0,WeatherCatV1.21B27,2013-08-21 11:27:00,
2013-08-21 06:29:00,68.9,63.5,29.85,South,175,0.0,0.0,83,0.00,,,0.00,0,WeatherCatV1.21B27,2013-08-21 11:29:00,
2013-08-21 06:30:00,68.8,63.4,29.85,South,175,0.0,0.0,83,0.00,,,0.00,0,WeatherCatV1.21B27,2013-08-21 11:30:00,
2013-08-21 06:32:00,68.7,63.7,29.85,South,175,0.0,0.0,84,0.00,,,0.00,0,WeatherCatV1.21B27,2013-08-21 11:32:00,
2013-08-21 06:33:00,68.7,63.7,29.85,South,175,0.0,0.0,84,0.00,,,0.00,0,WeatherCatV1.21B27,2013-08-21 11:33:00,
2013-08-21 06:34:00,68.6,63.6,29.85,South,175,0.0,0.0,84,0.00,,,0.00,0,WeatherCatV1.21B27,2013-08-21 11:34:00,
2013-08-21 06:35:00,68.6,63.6,29.85,South,175,0.0,0.0,84,0.00,,,0.00,0,WeatherCatV1.21B27,2013-08-21 11:35:00,
2013-08-21 06:37:00,68.5,63.5,29.85,South,175,0.0,0.0,84,0.00,,,0.00,0,WeatherCatV1.21B27,2013-08-21 11:37:00,
2013-08-21 06:38:00,68.4,63.4,29.85,South,175,0.0,0.0,84,0.00,,,0.00,0,WeatherCatV1.21B27,2013-08-21 11:38:00,
2013-08-21 06:40:00,68.4,63.7,29.85,South,175,0.0,0.0,85,0.00,,,0.00,0,WeatherCatV1.21B27,2013-08-21 11:40:00,
2013-08-21 06:42:00,68.3,63.6,29.85,South,175,0.0,0.0,85,0.00,,,0.00,0,WeatherCatV1.21B27,2013-08-21 11:42:00,
2013-08-21 06:43:00,68.2,63.5,29.85,South,175,0.0,0.0,85,0.00,,,0.00,0,WeatherCatV1.21B27,2013-08-21 11:43:00,
2013-08-21 06:45:00,68.1,63.4,29.85,South,175,0.0,0.0,85,0.00,,,0.00,0,WeatherCatV1.21B27,2013-08-21 11:45:00,
2013-08-21 06:46:00,68.1,63.4,29.85,South,175,0.0,0.0,85,0.00,,,0.00,0,WeatherCatV1.21B27,2013-08-21 11:46:00,
2013-08-21 06:47:00,68.0,63.3,29.85,South,175,0.0,0.0,85,0.00,,,0.00,0,WeatherCatV1.21B27,2013-08-21 11:47:00,
2013-08-21 06:48:00,67.9,63.2,29.85,South,175,0.0,0.0,85,0.00,,,0.00,0,WeatherCatV1.21B27,2013-08-21 11:48:00,
2013-08-21 06:50:00,67.8,63.5,29.85,South,175,0.0,0.0,86,0.00,,,0.00,0,WeatherCatV1.21B27,2013-08-21 11:50:00,
2013-08-21 06:51:00,67.8,63.5,29.85,South,175,0.0,0.0,86,0.00,,,0.00,0,WeatherCatV1.21B27,2013-08-21 11:51:00,
2013-08-21 06:52:00,67.7,63.3,29.85,South,175,0.0,0.0,86,0.00,,,0.00,0,WeatherCatV1.21B27,2013-08-21 11:52:00,
2013-08-21 06:54:00,67.7,63.3,29.85,South,175,0.0,0.0,86,0.00,,,0.00,5,WeatherCatV1.21B27,2013-08-21 11:54:00,
2013-08-21 06:55:00,67.5,63.2,29.85,South,175,0.0,0.0,86,0.00,,,0.00,5,WeatherCatV1.21B27,2013-08-21 11:55:00,
2013-08-21 06:56:00,67.5,63.2,29.85,South,175,0.0,0.0,86,0.00,,,0.00,5,WeatherCatV1.21B27,2013-08-21 11:56:00,
2013-08-21 06:57:00,67.4,63.1,29.85,South,175,0.0,0.0,86,0.00,,,0.00,7,WeatherCatV1.21B27,2013-08-21 11:57:00,
2013-08-21 06:59:00,67.2,63.2,29.85,South,175,0.0,0.0,87,0.00,,,0.00,7,WeatherCatV1.21B27,2013-08-21 11:59:00,
2013-08-21 07:00:00,67.1,63.1,29.85,South,175,0.0,1.0,87,0.00,,,0.00,9,WeatherCatV1.21B27,2013-08-21 12:00:00,
2013-08-21 07:01:00,67.0,63.0,29.85,South,175,0.0,1.0,87,0.00,,,0.00,9,WeatherCatV1.21B27,2013-08-21 12:01:00,
2013-08-21 07:03:00,67.0,63.0,29.85,South,175,2.0,2.0,87,0.00,,,0.00,11,WeatherCatV1.21B27,2013-08-21 12:03:00,
2013-08-21 07:04:00,66.9,62.9,29.85,South,175,0.0,2.0,87,0.00,,,0.00,12,WeatherCatV1.21B27,2013-08-21 12:04:00,
2013-08-21 07:05:00,66.9,62.9,29.85,South,175,0.0,0.0,87,0.00,,,0.00,12,WeatherCatV1.21B27,2013-08-21 12:05:00,
2013-08-21 07:06:00,66.9,62.9,29.86,South,175,0.0,1.0,87,0.00,,,0.00,14,WeatherCatV1.21B27,2013-08-21 12:06:00,
2013-08-21 07:08:00,66.9,63.2,29.85,South,175,0.0,1.0,88,0.00,,,0.00,14,WeatherCatV1.21B27,2013-08-21 12:08:00,
2013-08-21 07:10:00,66.9,63.2,29.85,South,175,0.0,0.0,88,0.00,,,0.00,18,WeatherCatV1.21B27,2013-08-21 12:10:00,
2013-08-21 07:11:00,66.9,63.2,29.86,South,175,3.0,3.0,88,0.00,,,0.00,18,WeatherCatV1.21B27,2013-08-21 12:11:00,
2013-08-21 07:12:00,66.9,63.2,29.86,South,175,0.0,3.0,88,0.00,,,0.00,19,WeatherCatV1.21B27,2013-08-21 12:12:00,
2013-08-21 07:13:00,66.9,63.2,29.86,South,175,0.0,2.0,88,0.00,,,0.00,19,WeatherCatV1.21B27,2013-08-21 12:13:00,
2013-08-21 07:15:00,67.0,63.3,29.86,South,175,1.0,3.0,88,0.00,,,0.00,21,WeatherCatV1.21B27,2013-08-21 12:15:00,
2013-08-21 07:16:00,67.0,63.3,29.86,South,175,0.0,3.0,88,0.00,,,0.00,23,WeatherCatV1.21B27,2013-08-21 12:16:00,
2013-08-21 07:17:00,67.0,63.3,29.86,South,175,0.0,2.0,88,0.00,,,0.00,23,WeatherCatV1.21B27,2013-08-21 12:17:00,
2013-08-21 07:18:00,67.0,63.3,29.86,South,175,0.0,2.0,88,0.00,,,0.00,25,WeatherCatV1.21B27,2013-08-21 12:18:00,
2013-08-21 07:20:00,67.0,63.3,29.86,South,175,0.0,1.0,88,0.00,,,0.00,26,WeatherCatV1.21B27,2013-08-21 12:20:00,
2013-08-21 07:21:00,67.0,63.3,29.86,South,175,0.0,3.0,88,0.00,,,0.00,28,WeatherCatV1.21B27,2013-08-21 12:21:00,
2013-08-21 07:23:00,67.0,63.3,29.86,South,175,0.0,2.0,88,0.00,,,0.00,28,WeatherCatV1.21B27,2013-08-21 12:23:00,
2013-08-21 07:24:00,67.0,63.3,29.86,South,175,0.0,2.0,88,0.00,,,0.00,30,WeatherCatV1.21B27,2013-08-21 12:24:00,
2013-08-21 07:25:00,67.1,63.4,29.86,South,175,0.0,2.0,88,0.00,,,0.00,32,WeatherCatV1.21B27,2013-08-21 12:25:00,
2013-08-21 07:26:00,67.1,63.4,29.86,South,175,0.0,1.0,88,0.00,,,0.00,33,WeatherCatV1.21B27,2013-08-21 12:26:00,
2013-08-21 07:28:00,67.1,63.4,29.86,South,175,1.0,1.0,88,0.00,,,0.00,35,WeatherCatV1.21B27,2013-08-21 12:28:00,
2013-08-21 07:29:00,67.2,63.5,29.86,South,175,0.0,2.0,88,0.00,,,0.00,37,WeatherCatV1.21B27,2013-08-21 12:29:00,
2013-08-21 07:30:00,67.2,63.5,29.86,South,175,0.0,4.0,88,0.00,,,0.00,39,WeatherCatV1.21B27,2013-08-21 12:30:00,
2013-08-21 07:31:00,67.2,63.5,29.86,South,175,0.0,4.0,88,0.00,,,0.00,40,WeatherCatV1.21B27,2013-08-21 12:31:00,
2013-08-21 07:32:00,67.2,63.5,29.86,South,175,1.0,1.0,88,0.00,,,0.00,40,WeatherCatV1.21B27,2013-08-21 12:32:00,
2013-08-21 07:33:00,67.2,63.5,29.86,South,175,0.0,5.0,88,0.00,,,0.00,40,WeatherCatV1.21B27,2013-08-21 12:33:00,
2013-08-21 07:34:00,67.3,63.6,29.86,South,175,2.0,2.0,88,0.00,,,0.00,44,WeatherCatV1.21B27,2013-08-21 12:34:00,
2013-08-21 07:35:00,67.3,63.6,29.86,South,175,0.0,3.0,88,0.00,,,0.00,44,WeatherCatV1.21B27,2013-08-21 12:35:00,
2013-08-21 07:36:00,67.3,63.6,29.86,South,175,0.0,3.0,88,0.00,,,0.00,46,WeatherCatV1.21B27,2013-08-21 12:36:00,
2013-08-21 07:38:00,67.4,63.7,29.86,South,175,0.0,5.0,88,0.00,,,0.00,47,WeatherCatV1.21B27,2013-08-21 12:38:00,
2013-08-21 07:39:00,67.5,63.8,29.86,South,175,0.0,2.0,88,0.00,,,0.00,49,WeatherCatV1.21B27,2013-08-21 12:39:00,
2013-08-21 07:40:00,67.5,63.8,29.86,South,175,0.0,1.0,88,0.00,,,0.00,51,WeatherCatV1.21B27,2013-08-21 12:40:00,
2013-08-21 07:41:00,67.6,63.6,29.86,South,175,0.0,0.0,87,0.00,,,0.00,53,WeatherCatV1.21B27,2013-08-21 12:41:00,
2013-08-21 07:43:00,67.6,63.6,29.87,South,175,0.0,0.0,87,0.00,,,0.00,54,WeatherCatV1.21B27,2013-08-21 12:43:00,
2013-08-21 07:45:00,67.7,63.7,29.86,South,175,0.0,0.0,87,0.00,,,0.00,56,WeatherCatV1.21B27,2013-08-21 12:45:00,
2013-08-21 07:46:00,67.8,63.8,29.86,South,175,0.0,0.0,87,0.00,,,0.00,60,WeatherCatV1.21B27,2013-08-21 12:46:00,
2013-08-21 07:48:00,67.8,63.8,29.86,South,175,0.0,0.0,87,0.00,,,0.00,62,WeatherCatV1.21B27,2013-08-21 12:48:00,
2013-08-21 07:50:00,67.9,63.9,29.86,South,175,0.0,0.0,87,0.00,,,0.00,63,WeatherCatV1.21B27,2013-08-21 12:50:00,
2013-08-21 07:51:00,68.0,64.0,29.86,South,175,0.0,0.0,87,0.00,,,0.00,63,WeatherCatV1.21B27,2013-08-21 12:51:00,
2013-08-21 07:53:00,68.1,64.1,29.86,South,175,0.0,2.0,87,0.00,,,0.00,67,WeatherCatV1.21B27,2013-08-21 12:53:00,
2013-08-21 07:56:00,68.1,64.1,29.86,South,175,0.0,3.0,87,0.00,,,0.00,69,WeatherCatV1.21B27,2013-08-21 12:56:00,
2013-08-21 07:58:00,68.1,63.8,29.87,South,175,0.0,1.0,86,0.00,,,0.00,72,WeatherCatV1.21B27,2013-08-21 12:58:00,
2013-08-21 07:59:00,68.1,63.8,29.87,South,175,0.0,1.0,86,0.00,,,0.00,72,WeatherCatV1.21B27,2013-08-21 12:59:00,
2013-08-21 08:01:00,68.0,63.7,29.87,South,175,0.0,0.0,86,0.00,,,0.00,74,WeatherCatV1.21B27,2013-08-21 13:01:00,
2013-08-21 08:03:00,68.1,63.8,29.86,South,175,0.0,3.0,86,0.00,,,0.00,84,WeatherCatV1.21B27,2013-08-21 13:03:00,
2013-08-21 08:04:00,68.1,63.8,29.87,South,175,0.0,3.0,86,0.00,,,0.00,84,WeatherCatV1.21B27,2013-08-21 13:04:00,
2013-08-21 08:06:00,68.1,63.8,29.87,South,175,0.0,1.0,86,0.00,,,0.00,120,WeatherCatV1.21B27,2013-08-21 13:06:00,
2013-08-21 08:07:00,68.2,63.8,29.87,South,175,0.0,1.0,86,0.00,,,0.00,128,WeatherCatV1.21B27,2013-08-21 13:07:00,
2013-08-21 08:09:00,68.3,63.9,29.87,South,175,0.0,0.0,86,0.00,,,0.00,135,WeatherCatV1.21B27,2013-08-21 13:09:00,
2013-08-21 08:11:00,68.4,64.0,29.87,South,175,0.0,0.0,86,0.00,,,0.00,128,WeatherCatV1.21B27,2013-08-21 13:11:00,
2013-08-21 08:12:00,68.5,64.1,29.87,South,175,0.0,2.0,86,0.00,,,0.00,134,WeatherCatV1.21B27,2013-08-21 13:12:00,
2013-08-21 08:14:00,68.7,64.7,29.87,South,175,1.0,4.0,87,0.00,,,0.00,151,WeatherCatV1.21B27,2013-08-21 13:14:00,
2013-08-21 08:16:00,68.9,64.5,29.86,South,175,0.0,1.0,86,0.00,,,0.00,144,WeatherCatV1.21B27,2013-08-21 13:16:00,
2013-08-21 08:17:00,69.0,64.6,29.86,South,175,0.0,1.0,86,0.00,,,0.00,160,WeatherCatV1.21B27,2013-08-21 13:17:00,
2013-08-21 08:19:00,69.2,64.8,29.86,South,175,0.0,2.0,86,0.00,,,0.00,171,WeatherCatV1.21B27,2013-08-21 13:19:00,
2013-08-21 08:20:00,69.3,64.9,29.87,South,175,2.0,3.0,86,0.00,,,0.00,172,WeatherCatV1.21B27,2013-08-21 13:20:00,
2013-08-21 08:21:00,69.4,65.0,29.87,South,174,0.0,3.0,86,0.00,,,0.00,155,WeatherCatV1.21B27,2013-08-21 13:21:00,
2013-08-21 08:22:00,69.5,64.8,29.87,South,174,0.0,0.0,85,0.00,,,0.00,158,WeatherCatV1.21B27,2013-08-21 13:22:00,
2013-08-21 08:24:00,69.6,64.9,29.87,South,174,0.0,0.0,85,0.00,,,0.00,179,WeatherCatV1.21B27,2013-08-21 13:24:00,
2013-08-21 08:25:00,69.7,65.0,29.87,South,173,0.0,0.0,85,0.00,,,0.00,171,WeatherCatV1.21B27,2013-08-21 13:25:00,
2013-08-21 08:26:00,69.8,65.1,29.87,South,173,0.0,1.0,85,0.00,,,0.00,190,WeatherCatV1.21B27,2013-08-21 13:26:00,
2013-08-21 08:27:00,69.9,65.2,29.87,South,174,0.0,1.0,85,0.00,,,0.00,206,WeatherCatV1.21B27,2013-08-21 13:27:00,
2013-08-21 08:29:00,70.0,65.3,29.87,South,174,0.0,0.0,85,0.00,,,0.00,195,WeatherCatV1.21B27,2013-08-21 13:29:00,
2013-08-21 08:31:00,70.2,65.5,29.87,South,174,0.0,2.0,85,0.00,,,0.00,185,WeatherCatV1.21B27,2013-08-21 13:31:00,
2013-08-21 08:32:00,70.2,65.1,29.87,South,174,1.0,2.0,84,0.00,,,0.00,192,WeatherCatV1.21B27,2013-08-21 13:32:00,
2013-08-21 08:33:00,70.2,65.1,29.87,South,173,0.0,2.0,84,0.00,,,0.00,204,WeatherCatV1.21B27,2013-08-21 13:33:00,
2013-08-21 08:34:00,70.3,65.2,29.88,South,174,3.0,3.0,84,0.00,,,0.00,229,WeatherCatV1.21B27,2013-08-21 13:34:00,
2013-08-21 08:36:00,70.3,65.2,29.88,South,173,0.0,3.0,84,0.00,,,0.00,214,WeatherCatV1.21B27,2013-08-21 13:36:00,
2013-08-21 08:37:00,70.4,65.3,29.88,South,174,0.0,1.0,84,0.00,,,0.00,197,WeatherCatV1.21B27,2013-08-21 13:37:00,
2013-08-21 08:38:00,70.5,65.4,29.87,South,174,0.0,0.0,84,0.00,,,0.00,221,WeatherCatV1.21B27,2013-08-21 13:38:00,
2013-08-21 08:39:00,70.6,65.5,29.87,South,174,1.0,4.0,84,0.00,,,0.00,250,WeatherCatV1.21B27,2013-08-21 13:39:00,
2013-08-21 08:41:00,70.7,65.3,29.87,South,174,0.0,4.0,83,0.00,,,0.00,216,WeatherCatV1.21B27,2013-08-21 13:41:00,
2013-08-21 08:42:00,70.8,65.4,29.87,South,173,0.0,3.0,83,0.00,,,0.00,213,WeatherCatV1.21B27,2013-08-21 13:42:00,
2013-08-21 08:43:00,71.0,65.6,29.87,South,173,0.0,0.0,83,0.00,,,0.00,218,WeatherCatV1.21B27,2013-08-21 13:43:00,
2013-08-21 08:44:00,71.0,65.6,29.87,South,173,0.0,1.0,83,0.00,,,0.00,206,WeatherCatV1.21B27,2013-08-21 13:44:00,
2013-08-21 08:46:00,71.1,65.7,29.87,South,173,1.0,3.0,83,0.00,,,0.00,209,WeatherCatV1.21B27,2013-08-21 13:46:00,
2013-08-21 08:47:00,71.2,65.8,29.87,South,173,0.0,3.0,83,0.00,,,0.00,237,WeatherCatV1.21B27,2013-08-21 13:47:00,
2013-08-21 08:48:00,71.3,65.9,29.87,South,173,0.0,3.0,83,0.00,,,0.00,258,WeatherCatV1.21B27,2013-08-21 13:48:00,
2013-08-21 08:49:00,71.3,65.9,29.87,South,173,3.0,3.0,83,0.00,,,0.00,258,WeatherCatV1.21B27,2013-08-21 13:49:00,
2013-08-21 08:51:00,71.4,66.0,29.87,South,173,4.0,4.0,83,0.00,,,0.00,292,WeatherCatV1.21B27,2013-08-21 13:51:00,
2013-08-21 08:52:00,71.4,66.0,29.87,South,173,0.0,4.0,83,0.00,,,0.00,292,WeatherCatV1.21B27,2013-08-21 13:52:00,
2013-08-21 08:53:00,71.5,65.7,29.87,South,173,2.0,3.0,82,0.00,,,0.00,295,WeatherCatV1.21B27,2013-08-21 13:53:00,
2013-08-21 08:54:00,71.6,65.8,29.87,South,172,2.0,4.0,82,0.00,,,0.00,295,WeatherCatV1.21B27,2013-08-21 13:54:00,
2013-08-21 08:56:00,71.8,66.0,29.87,South,173,2.0,3.0,82,0.00,,,0.00,297,WeatherCatV1.21B27,2013-08-21 13:56:00,
2013-08-21 08:57:00,71.9,66.1,29.87,South,173,0.0,3.0,82,0.00,,,0.00,294,WeatherCatV1.21B27,2013-08-21 13:57:00,
2013-08-21 08:58:00,72.1,65.9,29.87,SSE,168,1.0,4.0,81,0.00,,,0.00,295,WeatherCatV1.21B27,2013-08-21 13:58:00,
2013-08-21 08:59:00,72.1,65.9,29.87,SSE,165,0.0,4.0,81,0.00,,,0.00,299,WeatherCatV1.21B27,2013-08-21 13:59:00,
2013-08-21 09:01:00,72.2,66.0,29.87,SSE,165,0.0,4.0,81,0.00,,,0.00,302,WeatherCatV1.21B27,2013-08-21 14:01:00,
2013-08-21 09:02:00,72.3,66.1,29.87,SSE,164,0.0,0.0,81,0.00,,,0.00,308,WeatherCatV1.21B27,2013-08-21 14:02:00,
2013-08-21 09:03:00,72.4,66.2,29.87,SSE,165,0.0,1.0,81,0.00,,,0.00,302,WeatherCatV1.21B27,2013-08-21 14:03:00,
2013-08-21 09:04:00,72.5,66.3,29.87,SSE,164,1.0,1.0,81,0.00,,,0.00,295,WeatherCatV1.21B27,2013-08-21 14:04:00,
2013-08-21 09:05:00,72.6,66.1,29.87,SSE,164,4.0,4.0,80,0.00,,,0.00,285,WeatherCatV1.21B27,2013-08-21 14:05:00,
2013-08-21 09:06:00,72.8,66.3,29.87,SSE,164,2.0,4.0,80,0.00,,,0.00,274,WeatherCatV1.21B27,2013-08-21 14:06:00,
2013-08-21 09:07:00,72.8,66.3,29.87,SSE,165,0.0,2.0,80,0.00,,,0.00,278,WeatherCatV1.21B27,2013-08-21 14:07:00,
2013-08-21 09:08:00,72.8,65.9,29.87,SSE,165,0.0,5.0,79,0.00,,,0.00,269,WeatherCatV1.21B27,2013-08-21 14:08:00,
2013-08-21 09:09:00,72.9,66.0,29.87,SSE,164,0.0,5.0,79,0.00,,,0.00,272,WeatherCatV1.21B27,2013-08-21 14:09:00,
2013-08-21 09:10:00,73.0,66.1,29.87,SSE,165,0.0,0.0,79,0.00,,,0.00,265,WeatherCatV1.21B27,2013-08-21 14:10:00,
2013-08-21 09:12:00,73.1,66.2,29.87,SSE,165,0.0,0.0,79,0.00,,,0.00,264,WeatherCatV1.21B27,2013-08-21 14:12:00,
2013-08-21 09:13:00,73.3,66.4,29.87,SSE,164,0.0,0.0,79,0.00,,,0.00,265,WeatherCatV1.21B27,2013-08-21 14:13:00,
2013-08-21 09:14:00,73.4,66.5,29.87,SSE,165,0.0,0.0,79,0.00,,,0.00,265,WeatherCatV1.21B27,2013-08-21 14:14:00,
2013-08-21 09:15:00,73.5,66.6,29.87,SSE,165,1.0,2.0,79,0.00,,,0.00,248,WeatherCatV1.21B27,2013-08-21 14:15:00,
2013-08-21 09:17:00,73.6,66.3,29.87,SSE,159,0.0,5.0,78,0.00,,,0.00,278,WeatherCatV1.21B27,2013-08-21 14:17:00,
2013-08-21 09:18:00,73.6,66.3,29.87,SSE,159,5.0,5.0,78,0.00,,,0.00,299,WeatherCatV1.21B27,2013-08-21 14:18:00,
2013-08-21 09:19:00,73.6,66.3,29.87,SSE,159,5.0,6.0,78,0.00,,,0.00,299,WeatherCatV1.21B27,2013-08-21 14:19:00,
2013-08-21 09:20:00,73.6,65.9,29.87,SSE,151,0.0,6.0,77,0.00,,,0.00,320,WeatherCatV1.21B27,2013-08-21 14:20:00,
2013-08-21 09:22:00,73.7,66.0,29.87,SSE,151,0.0,3.0,77,0.00,,,0.00,329,WeatherCatV1.21B27,2013-08-21 14:22:00,
2013-08-21 09:23:00,73.8,66.1,29.87,SSE,150,1.0,2.0,77,0.00,,,0.00,329,WeatherCatV1.21B27,2013-08-21 14:23:00,
2013-08-21 09:24:00,73.8,66.1,29.87,SSE,151,0.0,2.0,77,0.00,,,0.00,343,WeatherCatV1.21B27,2013-08-21 14:24:00,
2013-08-21 09:26:00,74.0,66.3,29.87,SSE,151,1.0,4.0,77,0.00,,,0.00,366,WeatherCatV1.21B27,2013-08-21 14:26:00,
2013-08-21 09:27:00,74.0,65.9,29.87,SSW,192,4.0,8.0,76,0.00,,,0.00,373,WeatherCatV1.21B27,2013-08-21 14:27:00,
2013-08-21 09:29:00,74.0,65.9,29.87,SSW,192,5.0,5.0,76,0.00,,,0.00,390,WeatherCatV1.21B27,2013-08-21 14:29:00,
2013-08-21 09:30:00,73.9,65.8,29.87,South,190,2.0,6.0,76,0.00,,,0.00,396,WeatherCatV1.21B27,2013-08-21 14:30:00,
2013-08-21 09:31:00,73.9,65.8,29.87,South,182,2.0,6.0,76,0.00,,,0.00,396,WeatherCatV1.21B27,2013-08-21 14:31:00,
2013-08-21 09:32:00,73.9,65.8,29.86,SE,133,2.0,7.0,76,0.00,,,0.00,403,WeatherCatV1.21B27,2013-08-21 14:32:00,
2013-08-21 09:34:00,74.0,65.9,29.87,South,169,0.0,6.0,76,0.00,,,0.00,404,WeatherCatV1.21B27,2013-08-21 14:34:00,
2013-08-21 09:35:00,74.1,66.0,29.87,SSE,168,1.0,4.0,76,0.00,,,0.00,404,WeatherCatV1.21B27,2013-08-21 14:35:00,
2013-08-21 09:36:00,74.2,66.1,29.87,SSW,196,7.0,7.0,76,0.00,,,0.00,420,WeatherCatV1.21B27,2013-08-21 14:36:00,
2013-08-21 09:37:00,74.1,65.7,29.87,SSE,162,1.0,9.0,75,0.00,,,0.00,418,WeatherCatV1.21B27,2013-08-21 14:37:00,
2013-08-21 09:39:00,74.2,65.8,29.86,SSW,209,9.0,9.0,75,0.00,,,0.00,427,WeatherCatV1.21B27,2013-08-21 14:39:00,
2013-08-21 09:40:00,74.1,65.7,29.87,SSE,167,7.0,9.0,75,0.00,,,0.00,427,WeatherCatV1.21B27,2013-08-21 14:40:00,
2013-08-21 09:41:00,74.0,65.6,29.86,SSW,202,6.0,7.0,75,0.00,,,0.00,431,WeatherCatV1.21B27,2013-08-21 14:41:00,
2013-08-21 09:43:00,74.0,65.6,29.87,South,174,0.0,6.0,75,0.00,,,0.00,424,WeatherCatV1.21B27,2013-08-21 14:43:00,
2013-08-21 09:44:00,74.1,66.0,29.87,South,175,4.0,4.0,76,0.00,,,0.00,439,WeatherCatV1.21B27,2013-08-21 14:44:00,
2013-08-21 09:45:00,74.2,65.8,29.87,South,180,5.0,6.0,75,0.00,,,0.00,439,WeatherCatV1.21B27,2013-08-21 14:45:00,
2013-08-21 09:46:00,74.2,65.8,29.87,South,180,0.0,6.0,75,0.00,,,0.00,446,WeatherCatV1.21B27,2013-08-21 14:46:00,
2013-08-21 09:48:00,74.4,65.9,29.87,South,179,1.0,2.0,75,0.00,,,0.00,455,WeatherCatV1.21B27,2013-08-21 14:48:00,
2013-08-21 09:49:00,74.6,66.1,29.87,South,179,0.0,3.0,75,0.00,,,0.00,457,WeatherCatV1.21B27,2013-08-21 14:49:00,
2013-08-21 09:50:00,74.7,66.2,29.87,South,180,1.0,3.0,75,0.00,,,0.00,459,WeatherCatV1.21B27,2013-08-21 14:50:00,
2013-08-21 09:51:00,74.7,66.2,29.87,South,171,4.0,5.0,75,0.00,,,0.00,464,WeatherCatV1.21B27,2013-08-21 14:51:00,
2013-08-21 09:53:00,74.8,66.3,29.87,South,180,5.0,7.0,75,0.00,,,0.00,471,WeatherCatV1.21B27,2013-08-21 14:53:00,
2013-08-21 09:55:00,74.8,65.9,29.87,SSE,149,6.0,6.0,74,0.00,,,0.00,471,WeatherCatV1.21B27,2013-08-21 14:55:00,
2013-08-21 09:56:00,74.8,65.9,29.87,SSE,151,0.0,6.0,74,0.00,,,0.00,482,WeatherCatV1.21B27,2013-08-21 14:56:00,
2013-08-21 09:58:00,75.0,66.1,29.87,South,179,2.0,9.0,74,0.00,,,0.00,483,WeatherCatV1.21B27,2013-08-21 14:58:00,
2013-08-21 10:00:00,75.1,65.8,29.86,SSE,167,4.0,7.0,73,0.00,,,0.00,496,WeatherCatV1.21B27,2013-08-21 15:00:00,
2013-08-21 10:01:00,75.1,65.8,29.86,South,191,3.0,7.0,73,0.00,,,0.00,496,WeatherCatV1.21B27,2013-08-21 15:01:00,
2013-08-21 10:02:00,75.0,66.1,29.86,SSW,209,5.0,8.0,74,0.00,,,0.00,499,WeatherCatV1.21B27,2013-08-21 15:02:00,
2013-08-21 10:03:00,75.0,66.1,29.86,SSW,208,2.0,4.0,74,0.00,,,0.00,504,WeatherCatV1.21B27,2013-08-21 15:03:00,
2013-08-21 10:06:00,75.0,66.1,29.87,SSW,202,0.0,5.0,74,0.00,,,0.00,512,WeatherCatV1.21B27,2013-08-21 15:06:00,
2013-08-21 10:07:00,75.1,66.2,29.87,SE,136,4.0,10.0,74,0.00,,,0.00,517,WeatherCatV1.21B27,2013-08-21 15:07:00,
2013-08-21 10:09:00,75.2,66.7,29.87,South,182,1.0,6.0,75,0.00,,,0.00,522,WeatherCatV1.21B27,2013-08-21 15:09:00,
2013-08-21 10:11:00,75.2,66.7,29.87,SW,218,4.0,9.0,75,0.00,,,0.00,529,WeatherCatV1.21B27,2013-08-21 15:11:00,
2013-08-21 10:12:00,75.3,66.8,29.87,SSW,202,2.0,9.0,75,0.00,,,0.00,536,WeatherCatV1.21B27,2013-08-21 15:12:00,
2013-08-21 10:14:00,75.3,66.4,29.87,SSE,168,3.0,12.0,74,0.00,,,0.00,536,WeatherCatV1.21B27,2013-08-21 15:14:00,
2013-08-21 10:16:00,75.4,66.5,29.87,South,180,3.0,7.0,74,0.00,,,0.00,547,WeatherCatV1.21B27,2013-08-21 15:16:00,
2013-08-21 10:17:00,75.4,66.5,29.87,South,180,1.0,6.0,74,0.00,,,0.00,547,WeatherCatV1.21B27,2013-08-21 15:17:00,
2013-08-21 10:19:00,75.8,67.7,29.87,South,179,1.0,1.0,76,0.00,,,0.00,555,WeatherCatV1.21B27,2013-08-21 15:19:00,
2013-08-21 10:21:00,76.1,67.2,29.86,ESE,107,0.0,7.0,74,0.00,,,0.00,557,WeatherCatV1.21B27,2013-08-21 15:21:00,
2013-08-21 10:22:00,76.2,67.3,29.86,ESE,121,6.0,7.0,74,0.00,,,0.00,557,WeatherCatV1.21B27,2013-08-21 15:22:00,
2013-08-21 10:24:00,76.3,67.0,29.87,SW,219,6.0,10.0,73,0.00,,,0.00,564,WeatherCatV1.21B27,2013-08-21 15:24:00,
2013-08-21 10:26:00,76.0,66.7,29.86,South,182,7.0,10.0,73,0.00,,,0.00,577,WeatherCatV1.21B27,2013-08-21 15:26:00,
2013-08-21 10:27:00,76.0,66.7,29.86,South,169,2.0,10.0,73,0.00,,,0.00,577,WeatherCatV1.21B27,2013-08-21 15:27:00,
2013-08-21 10:28:00,75.8,66.5,29.86,South,176,3.0,7.0,73,0.00,,,0.00,577,WeatherCatV1.21B27,2013-08-21 15:28:00,
2013-08-21 10:29:00,75.8,66.9,29.86,South,176,1.0,5.0,74,0.00,,,0.00,580,WeatherCatV1.21B27,2013-08-21 15:29:00,
2013-08-21 10:31:00,76.2,67.7,29.86,SE,145,2.0,5.0,75,0.00,,,0.00,589,WeatherCatV1.21B27,2013-08-21 15:31:00,
2013-08-21 10:32:00,76.3,67.4,29.86,South,170,3.0,6.0,74,0.00,,,0.00,589,WeatherCatV1.21B27,2013-08-21 15:32:00,
2013-08-21 10:33:00,76.4,67.5,29.87,South,171,0.0,6.0,74,0.00,,,0.00,589,WeatherCatV1.21B27,2013-08-21 15:33:00,
2013-08-21 10:34:00,76.6,67.7,29.87,SSE,156,6.0,6.0,74,0.00,,,0.00,596,WeatherCatV1.21B27,2013-08-21 15:34:00,
2013-08-21 10:36:00,76.6,67.3,29.87,South,175,4.0,9.0,73,0.00,,,0.00,601,WeatherCatV1.21B27,2013-08-21 15:36:00,
2013-08-21 10:37:00,76.6,67.3,29.87,South,175,1.0,9.0,73,0.00,,,0.00,603,WeatherCatV1.21B27,2013-08-21 15:37:00,
2013-08-21 10:38:00,76.6,67.3,29.87,SSE,167,0.0,6.0,73,0.00,,,0.00,606,WeatherCatV1.21B27,2013-08-21 15:38:00,
2013-08-21 10:39:00,76.7,67.4,29.86,SSE,167,0.0,7.0,73,0.00,,,0.00,608,WeatherCatV1.21B27,2013-08-21 15:39:00,
2013-08-21 10:41:00,77.0,67.7,29.86,SSE,160,5.0,5.0,73,0.00,,,0.00,615,WeatherCatV1.21B27,2013-08-21 15:41:00,
2013-08-21 10:42:00,77.0,67.7,29.86,SSW,203,0.0,7.0,73,0.00,,,0.00,617,WeatherCatV1.21B27,2013-08-21 15:42:00,
2013-08-21 10:43:00,77.0,67.7,29.86,SSW,213,6.0,11.0,73,0.00,,,0.00,621,WeatherCatV1.21B27,2013-08-21 15:43:00,
2013-08-21 10:44:00,76.8,67.1,29.87,SSW,209,4.0,11.0,72,0.00,,,0.00,619,WeatherCatV1.21B27,2013-08-21 15:44:00,
2013-08-21 10:47:00,76.7,67.4,29.86,South,176,6.0,7.0,73,0.00,,,0.00,628,WeatherCatV1.21B27,2013-08-21 15:47:00,
2013-08-21 10:48:00,76.7,67.4,29.87,South,172,0.0,6.0,73,0.00,,,0.00,635,WeatherCatV1.21B27,2013-08-21 15:48:00,
2013-08-21 10:49:00,76.8,67.9,29.86,South,179,5.0,5.0,74,0.00,,,0.00,638,WeatherCatV1.21B27,2013-08-21 15:49:00,
2013-08-21 10:52:00,77.1,67.8,29.86,SSW,197,5.0,8.0,73,0.00,,,0.00,640,WeatherCatV1.21B27,2013-08-21 15:52:00,
2013-08-21 10:53:00,77.2,67.9,29.86,SSW,200,2.0,6.0,73,0.00,,,0.00,640,WeatherCatV1.21B27,2013-08-21 15:53:00,
2013-08-21 10:55:00,77.6,68.2,29.86,SSW,209,10.0,10.0,73,0.00,,,0.00,649,WeatherCatV1.21B27,2013-08-21 15:55:00,
2013-08-21 10:57:00,78.0,68.2,29.86,SE,142,3.0,6.0,72,0.00,,,0.00,661,WeatherCatV1.21B27,2013-08-21 15:57:00,
2013-08-21 10:58:00,78.0,68.2,29.86,SE,142,5.0,6.0,72,0.00,,,0.00,657,WeatherCatV1.21B27,2013-08-21 15:58:00,
2013-08-21 11:00:00,78.1,67.9,29.86,SSW,202,9.0,9.0,71,0.00,,,0.00,666,WeatherCatV1.21B27,2013-08-21 16:00:00,
2013-08-21 11:03:00,78.1,67.9,29.86,SE,140,3.0,10.0,71,0.00,,,0.00,668,WeatherCatV1.21B27,2013-08-21 16:03:00,
2013-08-21 11:05:00,78.0,67.8,29.86,SSE,148,6.0,10.0,71,0.00,,,0.00,675,WeatherCatV1.21B27,2013-08-21 16:05:00,
2013-08-21 11:08:00,77.8,68.4,29.86,SE,126,1.0,10.0,73,0.00,,,0.00,689,WeatherCatV1.21B27,2013-08-21 16:08:00,
2013-08-21 11:09:00,77.8,68.4,29.86,SSW,194,3.0,5.0,73,0.00,,,0.00,689,WeatherCatV1.21B27,2013-08-21 16:09:00,
2013-08-21 11:10:00,77.8,68.0,29.86,South,191,3.0,7.0,72,0.00,,,0.00,694,WeatherCatV1.21B27,2013-08-21 16:10:00,
2013-08-21 11:13:00,77.9,68.5,29.86,South,184,7.0,7.0,73,0.00,,,0.00,701,WeatherCatV1.21B27,2013-08-21 16:13:00,
2013-08-21 11:14:00,77.9,68.1,29.86,South,188,6.0,12.0,72,0.00,,,0.00,703,WeatherCatV1.21B27,2013-08-21 16:14:00,
2013-08-21 11:15:00,77.9,68.1,29.85,SSE,167,1.0,12.0,72,0.00,,,0.00,705,WeatherCatV1.21B27,2013-08-21 16:15:00,
2013-08-21 11:18:00,78.1,68.3,29.85,South,172,5.0,9.0,72,0.00,,,0.00,708,WeatherCatV1.21B27,2013-08-21 16:18:00,
2013-08-21 11:20:00,78.3,68.9,29.85,South,178,4.0,5.0,73,0.00,,,0.00,717,WeatherCatV1.21B27,2013-08-21 16:20:00,
2013-08-21 11:23:00,78.7,69.3,29.85,SE,141,4.0,6.0,73,0.00,,,0.00,721,WeatherCatV1.21B27,2013-08-21 16:23:00,
2013-08-21 11:24:00,78.7,69.3,29.85,South,174,2.0,6.0,73,0.00,,,0.00,721,WeatherCatV1.21B27,2013-08-21 16:24:00,
2013-08-21 11:25:00,78.8,69.0,29.85,SSW,196,6.0,8.0,72,0.00,,,0.00,726,WeatherCatV1.21B27,2013-08-21 16:25:00,
2013-08-21 11:28:00,79.1,69.3,29.85,SSE,148,0.0,5.0,72,0.00,,,0.00,733,WeatherCatV1.21B27,2013-08-21 16:28:00,
2013-08-21 11:29:00,79.2,69.4,29.85,SSE,158,2.0,7.0,72,0.00,,,0.00,737,WeatherCatV1.21B27,2013-08-21 16:29:00,
2013-08-21 11:30:00,79.4,69.6,29.85,SSE,158,0.0,2.0,72,0.00,,,0.00,740,WeatherCatV1.21B27,2013-08-21 16:30:00,
2013-08-21 11:33:00,79.8,69.9,29.85,SSE,157,1.0,6.0,72,0.00,,,0.00,742,WeatherCatV1.21B27,2013-08-21 16:33:00,
2013-08-21 11:34:00,79.9,69.6,29.85,SSE,157,0.0,3.0,71,0.00,,,0.00,745,WeatherCatV1.21B27,2013-08-21 16:34:00,
2013-08-21 11:35:00,80.3,70.0,29.85,SSE,158,3.0,3.0,71,0.00,,,0.00,751,WeatherCatV1.21B27,2013-08-21 16:35:00,
2013-08-21 11:38:00,80.3,69.6,29.85,ESE,123,3.0,8.0,70,0.00,,,0.00,752,WeatherCatV1.21B27,2013-08-21 16:38:00,
2013-08-21 11:39:00,80.4,69.7,29.85,ESE,123,0.0,3.0,70,0.00,,,0.00,754,WeatherCatV1.21B27,2013-08-21 16:39:00,
2013-08-21 11:41:00,80.5,70.2,29.85,South,185,1.0,5.0,71,0.00,,,0.00,754,WeatherCatV1.21B27,2013-08-21 16:41:00,
2013-08-21 11:43:00,80.7,70.0,29.85,SSW,195,2.0,6.0,70,0.00,,,0.00,758,WeatherCatV1.21B27,2013-08-21 16:43:00,
2013-08-21 11:44:00,80.7,69.6,29.85,SSW,192,8.0,10.0,69,0.00,,,0.00,759,WeatherCatV1.21B27,2013-08-21 16:44:00,
2013-08-21 11:46:00,80.4,68.8,29.84,SW,225,2.0,10.0,68,0.00,,,0.00,765,WeatherCatV1.21B27,2013-08-21 16:46:00,
2013-08-21 11:48:00,80.5,69.4,29.85,South,173,3.0,8.0,69,0.00,,,0.00,770,WeatherCatV1.21B27,2013-08-21 16:48:00,
2013-08-21 11:49:00,80.5,69.4,29.85,South,176,6.0,8.0,69,0.00,,,0.00,770,WeatherCatV1.21B27,2013-08-21 16:49:00,
2013-08-21 11:51:00,80.7,70.0,29.85,SE,133,0.0,6.0,70,0.00,,,0.00,773,WeatherCatV1.21B27,2013-08-21 16:51:00,
2013-08-21 11:54:00,81.1,69.9,29.85,SSW,198,0.0,6.0,69,0.00,,,0.00,775,WeatherCatV1.21B27,2013-08-21 16:54:00,
2013-08-21 11:56:00,81.7,70.5,29.84,South,173,4.0,4.0,69,0.00,,,0.00,780,WeatherCatV1.21B27,2013-08-21 16:56:00,
2013-08-21 11:59:00,81.8,70.2,29.84,SSW,206,1.0,9.0,68,0.00,,,0.00,791,WeatherCatV1.21B27,2013-08-21 16:59:00,
2013-08-21 12:00:00,81.9,70.3,29.84,South,189,6.0,10.0,68,0.00,,,0.00,791,WeatherCatV1.21B27,2013-08-21 17:00:00,
2013-08-21 12:01:00,82.0,70.4,29.84,South,171,1.0,10.0,68,0.00,,,0.00,793,WeatherCatV1.21B27,2013-08-21 17:01:00,
2013-08-21 12:04:00,82.2,70.6,29.84,SSE,150,1.0,11.0,68,0.00,,,0.00,802,WeatherCatV1.21B27,2013-08-21 17:04:00,
2013-08-21 12:05:00,82.4,70.3,29.84,SSE,150,1.0,3.0,67,0.00,,,0.00,802,WeatherCatV1.21B27,2013-08-21 17:05:00,
2013-08-21 12:06:00,82.4,69.9,29.84,South,183,4.0,7.0,66,0.00,,,0.00,803,WeatherCatV1.21B27,2013-08-21 17:06:00,
2013-08-21 12:09:00,82.4,70.3,29.84,South,188,0.0,5.0,67,0.00,,,0.00,809,WeatherCatV1.21B27,2013-08-21 17:09:00,
2013-08-21 12:10:00,82.5,70.4,29.84,South,188,0.0,4.0,67,0.00,,,0.00,809,WeatherCatV1.21B27,2013-08-21 17:10:00,
2013-08-21 12:11:00,82.8,71.1,29.84,South,188,2.0,2.0,68,0.00,,,0.00,809,WeatherCatV1.21B27,2013-08-21 17:11:00,
2013-08-21 12:12:00,82.9,71.2,29.84,SE,127,3.0,7.0,68,0.00,,,0.00,812,WeatherCatV1.21B27,2013-08-21 17:12:00,
2013-08-21 12:14:00,83.1,69.6,29.84,South,190,5.0,11.0,64,0.00,,,0.00,814,WeatherCatV1.21B27,2013-08-21 17:14:00,
2013-08-21 12:15:00,83.0,70.0,29.84,SW,222,3.0,11.0,65,0.00,,,0.00,814,WeatherCatV1.21B27,2013-08-21 17:15:00,
2013-08-21 12:17:00,83.0,70.0,29.84,South,172,6.0,11.0,65,0.00,,,0.00,817,WeatherCatV1.21B27,2013-08-21 17:17:00,
2013-08-21 12:19:00,82.9,69.9,29.84,SSW,210,10.0,13.0,65,0.00,,,0.00,817,WeatherCatV1.21B27,2013-08-21 17:19:00,
2013-08-21 12:20:00,82.8,69.3,29.84,SSW,211,1.0,12.0,64,0.00,,,0.00,823,WeatherCatV1.21B27,2013-08-21 17:20:00,
2013-08-21 12:22:00,82.9,69.9,29.84,South,187,6.0,7.0,65,0.00,,,0.00,821,WeatherCatV1.21B27,2013-08-21 17:22:00,
2013-08-21 12:24:00,83.2,70.2,29.84,SW,219,4.0,8.0,65,0.00,,,0.00,830,WeatherCatV1.21B27,2013-08-21 17:24:00,
2013-08-21 12:25:00,83.2,69.7,29.84,South,184,7.0,11.0,64,0.00,,,0.00,831,WeatherCatV1.21B27,2013-08-21 17:25:00,
2013-08-21 12:27:00,83.3,70.3,29.84,SE,128,4.0,11.0,65,0.00,,,0.00,835,WeatherCatV1.21B27,2013-08-21 17:27:00,
2013-08-21 12:30:00,83.8,70.3,29.84,SSE,149,0.0,5.0,64,0.00,,,0.00,835,WeatherCatV1.21B27,2013-08-21 17:30:00,
2013-08-21 12:31:00,83.8,70.3,29.84,SSW,206,0.0,5.0,64,0.00,,,0.00,837,WeatherCatV1.21B27,2013-08-21 17:31:00,
2013-08-21 12:32:00,84.1,71.0,29.84,South,174,3.0,4.0,65,0.00,,,0.00,838,WeatherCatV1.21B27,2013-08-21 17:32:00,
2013-08-21 12:35:00,84.5,70.9,29.84,SSW,207,5.0,7.0,64,0.00,,,0.00,844,WeatherCatV1.21B27,2013-08-21 17:35:00,
2013-08-21 12:36:00,84.5,70.9,29.84,SSW,203,2.0,7.0,64,0.00,,,0.00,844,WeatherCatV1.21B27,2013-08-21 17:36:00,
2013-08-21 12:37:00,84.4,70.9,29.84,South,177,5.0,6.0,64,0.00,,,0.00,846,WeatherCatV1.21B27,2013-08-21 17:37:00,
2013-08-21 12:40:00,84.3,70.3,29.84,SSE,168,5.0,5.0,63,0.00,,,0.00,846,WeatherCatV1.21B27,2013-08-21 17:40:00,
2013-08-21 12:41:00,84.4,70.9,29.84,SW,233,4.0,13.0,64,0.00,,,0.00,846,WeatherCatV1.21B27,2013-08-21 17:41:00,
2013-08-21 12:42:00,84.5,70.9,29.84,WSW,241,0.0,13.0,64,0.00,,,0.00,842,WeatherCatV1.21B27,2013-08-21 17:42:00,
2013-08-21 12:45:00,84.7,70.2,29.84,South,188,3.0,10.0,62,0.00,,,0.00,851,WeatherCatV1.21B27,2013-08-21 17:45:00,
2013-08-21 12:46:00,84.7,70.2,29.84,SSW,192,4.0,10.0,62,0.00,,,0.00,851,WeatherCatV1.21B27,2013-08-21 17:46:00,
2013-08-21 12:47:00,84.7,70.2,29.84,SSW,193,0.0,10.0,62,0.00,,,0.00,853,WeatherCatV1.21B27,2013-08-21 17:47:00,
2013-08-21 12:48:00,84.8,70.3,29.84,SSW,192,3.0,6.0,62,0.00,,,0.00,853,WeatherCatV1.21B27,2013-08-21 17:48:00,
2013-08-21 12:50:00,85.0,71.0,29.84,SSW,201,5.0,9.0,63,0.00,,,0.00,849,WeatherCatV1.21B27,2013-08-21 17:50:00,
2013-08-21 12:52:00,84.9,70.9,29.84,South,184,3.0,7.0,63,0.00,,,0.00,854,WeatherCatV1.21B27,2013-08-21 17:52:00,
2013-08-21 12:53:00,85.1,71.5,29.84,SSW,198,4.0,4.0,64,0.00,,,0.00,856,WeatherCatV1.21B27,2013-08-21 17:53:00,
2013-08-21 12:56:00,85.5,71.9,29.84,SE,142,2.0,3.0,64,0.00,,,0.00,860,WeatherCatV1.21B27,2013-08-21 17:56:00,
2013-08-21 12:57:00,85.7,72.1,29.84,SE,142,3.0,4.0,64,0.00,,,0.00,858,WeatherCatV1.21B27,2013-08-21 17:57:00,
2013-08-21 12:58:00,85.8,72.2,29.84,South,179,2.0,5.0,64,0.00,,,0.00,856,WeatherCatV1.21B27,2013-08-21 17:58:00,
2013-08-21 13:01:00,86.5,72.8,29.84,South,180,3.0,3.0,64,0.00,,,0.00,858,WeatherCatV1.21B27,2013-08-21 18:01:00,
2013-08-21 13:02:00,86.6,72.5,29.84,SSE,148,1.0,5.0,63,0.00,,,0.00,860,WeatherCatV1.21B27,2013-08-21 18:02:00,
2013-08-21 13:03:00,86.7,72.6,29.84,SSE,152,7.0,10.0,63,0.00,,,0.00,861,WeatherCatV1.21B27,2013-08-21 18:03:00,
2013-08-21 13:07:00,86.6,71.5,29.84,South,172,2.0,6.0,61,0.00,,,0.00,868,WeatherCatV1.21B27,2013-08-21 18:07:00,
2013-08-21 13:08:00,86.6,71.0,29.84,South,178,2.0,8.0,60,0.00,,,0.00,868,WeatherCatV1.21B27,2013-08-21 18:08:00,
2013-08-21 13:12:00,86.6,72.5,29.84,SSE,163,2.0,4.0,63,0.00,,,0.00,867,WeatherCatV1.21B27,2013-08-21 18:12:00,
2013-08-21 13:13:00,86.6,72.0,29.84,SE,131,3.0,11.0,62,0.00,,,0.00,868,WeatherCatV1.21B27,2013-08-21 18:13:00,
2013-08-21 13:17:00,86.5,70.9,29.84,SE,124,5.0,7.0,60,0.00,,,0.00,870,WeatherCatV1.21B27,2013-08-21 18:17:00,
2013-08-21 13:18:00,86.5,70.9,29.84,SSW,213,10.0,10.0,60,0.00,,,0.00,870,WeatherCatV1.21B27,2013-08-21 18:18:00,
2013-08-21 13:22:00,86.6,71.5,29.84,South,171,0.0,7.0,61,0.00,,,0.00,872,WeatherCatV1.21B27,2013-08-21 18:22:00,
2013-08-21 13:23:00,86.7,71.6,29.84,WSW,248,2.0,8.0,61,0.00,,,0.00,870,WeatherCatV1.21B27,2013-08-21 18:23:00,
2013-08-21 13:24:00,86.7,71.6,29.84,WSW,248,2.0,8.0,61,0.00,,,0.00,870,WeatherCatV1.21B27,2013-08-21 18:24:00,
2013-08-21 13:27:00,87.1,72.5,29.84,South,171,3.0,7.0,62,0.00,,,0.00,868,WeatherCatV1.21B27,2013-08-21 18:27:00,
2013-08-21 13:28:00,87.1,72.5,29.84,South,171,1.0,7.0,62,0.00,,,0.00,870,WeatherCatV1.21B27,2013-08-21 18:28:00,
2013-08-21 13:29:00,87.1,72.5,29.84,South,171,0.0,7.0,62,0.00,,,0.00,870,WeatherCatV1.21B27,2013-08-21 18:29:00,
2013-08-21 13:32:00,87.4,72.3,29.84,SSW,205,4.0,5.0,61,0.00,,,0.00,870,WeatherCatV1.21B27,2013-08-21 18:32:00,
2013-08-21 13:33:00,87.5,71.9,29.84,WSW,238,0.0,6.0,60,0.00,,,0.00,872,WeatherCatV1.21B27,2013-08-21 18:33:00,
2013-08-21 13:34:00,87.5,71.9,29.84,WSW,238,0.0,6.0,60,0.00,,,0.00,872,WeatherCatV1.21B27,2013-08-21 18:34:00,
2013-08-21 13:37:00,87.5,72.4,29.84,South,190,4.0,10.0,61,0.00,,,0.00,868,WeatherCatV1.21B27,2013-08-21 18:37:00,
2013-08-21 13:38:00,87.5,72.4,29.84,SSW,195,4.0,10.0,61,0.00,,,0.00,868,WeatherCatV1.21B27,2013-08-21 18:38:00,
2013-08-21 13:39:00,87.5,72.4,29.84,SSW,196,0.0,6.0,61,0.00,,,0.00,868,WeatherCatV1.21B27,2013-08-21 18:39:00,
2013-08-21 13:40:00,87.6,72.4,29.84,SSW,195,0.0,6.0,61,0.00,,,0.00,875,WeatherCatV1.21B27,2013-08-21 18:40:00,
2013-08-21 13:43:00,87.7,72.1,29.84,SW,217,3.0,6.0,60,0.00,,,0.00,874,WeatherCatV1.21B27,2013-08-21 18:43:00,
2013-08-21 13:44:00,87.7,72.1,29.84,SW,218,0.0,6.0,60,0.00,,,0.00,872,WeatherCatV1.21B27,2013-08-21 18:44:00,
2013-08-21 13:45:00,87.9,72.2,29.84,SW,219,1.0,4.0,60,0.00,,,0.00,868,WeatherCatV1.21B27,2013-08-21 18:45:00,
2013-08-21 13:48:00,88.1,71.9,29.84,SSE,150,4.0,7.0,59,0.00,,,0.00,870,WeatherCatV1.21B27,2013-08-21 18:48:00,
2013-08-21 13:49:00,88.0,71.8,29.84,South,173,4.0,7.0,59,0.00,,,0.00,870,WeatherCatV1.21B27,2013-08-21 18:49:00,
2013-08-21 13:50:00,88.0,71.8,29.84,South,173,1.0,7.0,59,0.00,,,0.00,872,WeatherCatV1.21B27,2013-08-21 18:50:00,
2013-08-21 13:53:00,87.8,71.7,29.83,South,187,3.0,12.0,59,0.00,,,0.00,863,WeatherCatV1.21B27,2013-08-21 18:53:00,
2013-08-21 13:54:00,87.8,72.2,29.83,SE,140,7.0,7.0,60,0.00,,,0.00,863,WeatherCatV1.21B27,2013-08-21 18:54:00,
2013-08-21 13:55:00,87.8,72.2,29.84,South,169,5.0,8.0,60,0.00,,,0.00,863,WeatherCatV1.21B27,2013-08-21 18:55:00,
2013-08-21 13:56:00,87.9,72.2,29.84,SSE,157,0.0,8.0,60,0.00,,,0.00,863,WeatherCatV1.21B27,2013-08-21 18:56:00,
2013-08-21 13:58:00,88.2,72.0,29.83,SW,215,7.0,7.0,59,0.00,,,0.00,863,WeatherCatV1.21B27,2013-08-21 18:58:00,
2013-08-21 13:59:00,88.3,72.1,29.83,SW,221,5.0,7.0,59,0.00,,,0.00,863,WeatherCatV1.21B27,2013-08-21 18:59:00,
2013-08-21 14:00:00,88.2,71.5,29.83,SSW,211,3.0,7.0,58,0.00,,,0.00,865,WeatherCatV1.21B27,2013-08-21 19:00:00,
2013-08-21 14:01:00,88.2,71.5,29.83,SSW,192,4.0,10.0,58,0.00,,,0.00,865,WeatherCatV1.21B27,2013-08-21 19:01:00,
2013-08-21 14:04:00,88.1,71.9,29.83,South,181,11.0,11.0,59,0.00,,,0.00,863,WeatherCatV1.21B27,2013-08-21 19:04:00,
2013-08-21 14:05:00,88.1,71.4,29.83,SSW,209,4.0,11.0,58,0.00,,,0.00,860,WeatherCatV1.21B27,2013-08-21 19:05:00,
2013-08-21 14:06:00,88.1,71.9,29.83,SE,132,4.0,10.0,59,0.00,,,0.00,863,WeatherCatV1.21B27,2013-08-21 19:06:00,
2013-08-21 14:09:00,88.0,71.8,29.83,South,169,5.0,9.0,59,0.00,,,0.00,856,WeatherCatV1.21B27,2013-08-21 19:09:00,
2013-08-21 14:10:00,88.0,71.8,29.83,South,191,1.0,7.0,59,0.00,,,0.00,858,WeatherCatV1.21B27,2013-08-21 19:10:00,
2013-08-21 14:11:00,88.1,71.9,29.83,SSE,163,1.0,10.0,59,0.00,,,0.00,860,WeatherCatV1.21B27,2013-08-21 19:11:00,
2013-08-21 14:14:00,88.2,72.0,29.83,SSW,195,3.0,14.0,59,0.00,,,0.00,860,WeatherCatV1.21B27,2013-08-21 19:14:00,
2013-08-21 14:15:00,88.3,72.6,29.83,SE,136,3.0,14.0,60,0.00,,,0.00,861,WeatherCatV1.21B27,2013-08-21 19:15:00,
2013-08-21 14:16:00,88.4,72.2,29.83,SE,137,0.0,3.0,59,0.00,,,0.00,861,WeatherCatV1.21B27,2013-08-21 19:16:00,
2013-08-21 14:19:00,88.8,73.1,29.83,SE,144,3.0,5.0,60,0.00,,,0.00,860,WeatherCatV1.21B27,2013-08-21 19:19:00,
2013-08-21 14:20:00,88.8,72.6,29.83,SSW,208,5.0,7.0,59,0.00,,,0.00,854,WeatherCatV1.21B27,2013-08-21 19:20:00,
2013-08-21 14:21:00,88.8,73.6,29.83,SW,226,0.0,9.0,61,0.00,,,0.00,853,WeatherCatV1.21B27,2013-08-21 19:21:00,
2013-08-21 14:24:00,89.0,72.8,29.83,SSW,198,5.0,7.0,59,0.00,,,0.00,849,WeatherCatV1.21B27,2013-08-21 19:24:00,
2013-08-21 14:26:00,88.9,71.7,29.83,South,190,1.0,10.0,57,0.00,,,0.00,851,WeatherCatV1.21B27,2013-08-21 19:26:00,
2013-08-21 14:29:00,88.8,72.6,29.83,South,186,6.0,7.0,59,0.00,,,0.00,853,WeatherCatV1.21B27,2013-08-21 19:29:00,
2013-08-21 14:30:00,88.8,72.6,29.83,South,186,0.0,7.0,59,0.00,,,0.00,853,WeatherCatV1.21B27,2013-08-21 19:30:00,
2013-08-21 14:31:00,89.0,72.8,29.83,SSW,202,0.0,7.0,59,0.00,,,0.00,849,WeatherCatV1.21B27,2013-08-21 19:31:00,
2013-08-21 14:35:00,89.0,72.8,29.83,South,190,5.0,12.0,59,0.00,,,0.00,846,WeatherCatV1.21B27,2013-08-21 19:35:00,
2013-08-21 14:36:00,89.2,73.0,29.83,SSE,165,2.0,9.0,59,0.00,,,0.00,844,WeatherCatV1.21B27,2013-08-21 19:36:00,
2013-08-21 14:37:00,89.2,72.4,29.83,SSW,205,3.0,9.0,58,0.00,,,0.00,844,WeatherCatV1.21B27,2013-08-21 19:37:00,
2013-08-21 14:40:00,89.5,71.7,29.83,South,186,6.0,11.0,56,0.00,,,0.00,838,WeatherCatV1.21B27,2013-08-21 19:40:00,
2013-08-21 14:42:00,89.3,72.5,29.83,SW,223,4.0,10.0,58,0.00,,,0.00,833,WeatherCatV1.21B27,2013-08-21 19:42:00,
2013-08-21 14:45:00,89.0,71.8,29.83,SSE,148,0.0,12.0,57,0.00,,,0.00,835,WeatherCatV1.21B27,2013-08-21 19:45:00,
2013-08-21 14:47:00,89.0,71.8,29.83,SE,129,2.0,10.0,57,0.00,,,0.00,824,WeatherCatV1.21B27,2013-08-21 19:47:00,
2013-08-21 14:50:00,89.1,72.4,29.83,SE,138,1.0,10.0,58,0.00,,,0.00,821,WeatherCatV1.21B27,2013-08-21 19:50:00,
2013-08-21 14:52:00,89.1,72.9,29.83,SSW,194,0.0,9.0,59,0.00,,,0.00,824,WeatherCatV1.21B27,2013-08-21 19:52:00,
2013-08-21 14:55:00,89.2,72.4,29.83,South,182,3.0,9.0,58,0.00,,,0.00,817,WeatherCatV1.21B27,2013-08-21 19:55:00,
2013-08-21 14:57:00,89.0,71.8,29.83,South,190,1.0,15.0,57,0.00,,,0.00,814,WeatherCatV1.21B27,2013-08-21 19:57:00,
2013-08-21 14:58:00,89.0,72.3,29.83,South,182,4.0,15.0,58,0.00,,,0.00,810,WeatherCatV1.21B27,2013-08-21 19:58:00,
2013-08-21 15:00:00,89.4,72.1,29.83,South,179,1.0,9.0,57,0.00,,,0.00,803,WeatherCatV1.21B27,2013-08-21 20:00:00,
2013-08-21 15:01:00,89.4,72.1,29.83,South,179,2.0,9.0,57,0.00,,,0.00,803,WeatherCatV1.21B27,2013-08-21 20:01:00,
2013-08-21 15:02:00,89.6,72.8,29.83,SSE,152,1.0,5.0,58,0.00,,,0.00,800,WeatherCatV1.21B27,2013-08-21 20:02:00,
2013-08-21 15:03:00,89.7,72.9,29.83,SSE,148,9.0,9.0,58,0.00,,,0.00,800,WeatherCatV1.21B27,2013-08-21 20:03:00,
2013-08-21 15:06:00,89.6,72.8,29.83,South,173,3.0,11.0,58,0.00,,,0.00,800,WeatherCatV1.21B27,2013-08-21 20:06:00,
2013-08-21 15:08:00,89.7,72.9,29.83,SSW,196,6.0,12.0,58,0.00,,,0.00,796,WeatherCatV1.21B27,2013-08-21 20:08:00,
2013-08-21 15:11:00,89.6,72.8,29.82,SSE,164,2.0,11.0,58,0.00,,,0.00,789,WeatherCatV1.21B27,2013-08-21 20:11:00,
2013-08-21 15:12:00,89.6,73.3,29.82,SE,145,3.0,10.0,59,0.00,,,0.00,788,WeatherCatV1.21B27,2013-08-21 20:12:00,
2013-08-21 15:13:00,89.5,73.2,29.82,SSE,155,5.0,10.0,59,0.00,,,0.00,786,WeatherCatV1.21B27,2013-08-21 20:13:00,
2013-08-21 15:16:00,89.3,73.6,29.82,SE,130,2.0,10.0,60,0.00,,,0.00,780,WeatherCatV1.21B27,2013-08-21 20:16:00,
2013-08-21 15:17:00,89.3,73.6,29.82,SE,140,3.0,10.0,60,0.00,,,0.00,775,WeatherCatV1.21B27,2013-08-21 20:17:00,
2013-08-21 15:18:00,89.5,73.7,29.82,SW,214,5.0,7.0,60,0.00,,,0.00,773,WeatherCatV1.21B27,2013-08-21 20:18:00,
2013-08-21 15:19:00,89.6,73.3,29.82,SE,144,3.0,7.0,59,0.00,,,0.00,773,WeatherCatV1.21B27,2013-08-21 20:19:00,
2013-08-21 15:21:00,89.5,73.2,29.82,East,98,0.0,9.0,59,0.00,,,0.00,772,WeatherCatV1.21B27,2013-08-21 20:21:00,
2013-08-21 15:22:00,89.4,73.2,29.82,SSE,165,5.0,9.0,59,0.00,,,0.00,772,WeatherCatV1.21B27,2013-08-21 20:22:00,
2013-08-21 15:23:00,89.4,73.2,29.82,South,182,2.0,10.0,59,0.00,,,0.00,768,WeatherCatV1.21B27,2013-08-21 20:23:00,
2013-08-21 15:24:00,89.4,73.2,29.82,South,182,0.0,10.0,59,0.00,,,0.00,768,WeatherCatV1.21B27,2013-08-21 20:24:00,
2013-08-21 15:26:00,89.4,72.6,29.82,SE,138,11.0,11.0,58,0.00,,,0.00,765,WeatherCatV1.21B27,2013-08-21 20:26:00,
2013-08-21 15:27:00,89.3,72.5,29.82,ESE,105,4.0,11.0,58,0.00,,,0.00,765,WeatherCatV1.21B27,2013-08-21 20:27:00,
2013-08-21 15:28:00,89.3,72.5,29.82,ESE,102,2.0,11.0,58,0.00,,,0.00,763,WeatherCatV1.21B27,2013-08-21 20:28:00,
2013-08-21 15:29:00,89.4,73.2,29.82,ESE,105,0.0,4.0,59,0.00,,,0.00,761,WeatherCatV1.21B27,2013-08-21 20:29:00,
2013-08-21 15:31:00,90.1,73.8,29.82,SE,132,2.0,4.0,59,0.00,,,0.00,759,WeatherCatV1.21B27,2013-08-21 20:31:00,
2013-08-21 15:32:00,90.2,74.4,29.82,South,187,4.0,5.0,60,0.00,,,0.00,759,WeatherCatV1.21B27,2013-08-21 20:32:00,
2013-08-21 15:33:00,90.3,73.5,29.82,SE,133,2.0,9.0,58,0.00,,,0.00,756,WeatherCatV1.21B27,2013-08-21 20:33:00,
2013-08-21 15:34:00,90.4,73.1,29.82,SE,130,6.0,13.0,57,0.00,,,0.00,756,WeatherCatV1.21B27,2013-08-21 20:34:00,
2013-08-21 15:36:00,90.3,73.0,29.82,SSE,156,0.0,11.0,57,0.00,,,0.00,744,WeatherCatV1.21B27,2013-08-21 20:36:00,
2013-08-21 15:37:00,90.3,74.0,29.82,SSW,209,4.0,13.0,59,0.00,,,0.00,745,WeatherCatV1.21B27,2013-08-21 20:37:00,
2013-08-21 15:38:00,90.3,73.0,29.82,South,187,1.0,13.0,57,0.00,,,0.00,738,WeatherCatV1.21B27,2013-08-21 20:38:00,
2013-08-21 15:39:00,90.3,74.0,29.82,SSE,158,9.0,11.0,59,0.00,,,0.00,731,WeatherCatV1.21B27,2013-08-21 20:39:00,
2013-08-21 15:42:00,89.9,74.1,29.82,ESE,118,1.0,9.0,60,0.00,,,0.00,722,WeatherCatV1.21B27,2013-08-21 20:42:00,
2013-08-21 15:43:00,89.8,74.0,29.82,SE,128,1.0,4.0,60,0.00,,,0.00,729,WeatherCatV1.21B27,2013-08-21 20:43:00,
2013-08-21 15:44:00,89.9,74.6,29.82,ESE,114,7.0,9.0,61,0.00,,,0.00,733,WeatherCatV1.21B27,2013-08-21 20:44:00,
2013-08-21 15:47:00,89.8,73.5,29.82,SSE,149,7.0,7.0,59,0.00,,,0.00,724,WeatherCatV1.21B27,2013-08-21 20:47:00,
2013-08-21 15:48:00,89.7,73.9,29.81,SSE,163,10.0,10.0,60,0.00,,,0.00,724,WeatherCatV1.21B27,2013-08-21 20:48:00,
2013-08-21 15:49:00,89.6,73.8,29.81,SE,138,5.0,11.0,60,0.00,,,0.00,728,WeatherCatV1.21B27,2013-08-21 20:49:00,
2013-08-21 15:50:00,89.6,73.8,29.82,SSW,192,0.0,11.0,60,0.00,,,0.00,724,WeatherCatV1.21B27,2013-08-21 20:50:00,
2013-08-21 15:52:00,89.7,74.4,29.82,ESE,118,5.0,12.0,61,0.00,,,0.00,717,WeatherCatV1.21B27,2013-08-21 20:52:00,
2013-08-21 15:53:00,89.8,73.5,29.82,South,175,5.0,12.0,59,0.00,,,0.00,715,WeatherCatV1.21B27,2013-08-21 20:53:00,
2013-08-21 15:54:00,89.8,73.5,29.82,SSE,165,4.0,9.0,59,0.00,,,0.00,710,WeatherCatV1.21B27,2013-08-21 20:54:00,
2013-08-21 15:55:00,89.8,73.5,29.82,ESE,123,0.0,9.0,59,0.00,,,0.00,696,WeatherCatV1.21B27,2013-08-21 20:55:00,
2013-08-21 15:57:00,89.5,72.7,29.82,SSE,159,0.0,10.0,58,0.00,,,0.00,698,WeatherCatV1.21B27,2013-08-21 20:57:00,
2013-08-21 15:58:00,89.6,73.8,29.82,SSW,207,6.0,6.0,60,0.00,,,0.00,700,WeatherCatV1.21B27,2013-08-21 20:58:00,
2013-08-21 15:59:00,89.7,73.9,29.82,South,173,5.0,11.0,60,0.00,,,0.00,700,WeatherCatV1.21B27,2013-08-21 20:59:00,
2013-08-21 16:00:00,89.8,73.5,29.82,SE,142,7.0,16.0,59,0.00,,,0.00,698,WeatherCatV1.21B27,2013-08-21 21:00:00,
2013-08-21 16:02:00,89.7,72.9,29.82,SSE,157,11.0,11.0,58,0.00,,,0.00,696,WeatherCatV1.21B27,2013-08-21 21:02:00,
2013-08-21 16:04:00,89.7,72.4,29.82,ENE,76,9.0,11.0,57,0.00,,,0.00,691,WeatherCatV1.21B27,2013-08-21 21:04:00,
2013-08-21 16:05:00,89.5,72.7,29.82,South,184,6.0,15.0,58,0.00,,,0.00,687,WeatherCatV1.21B27,2013-08-21 21:05:00,
2013-08-21 16:08:00,89.7,73.4,29.82,SE,138,0.0,4.0,59,0.00,,,0.00,679,WeatherCatV1.21B27,2013-08-21 21:08:00,
2013-08-21 16:09:00,89.9,74.1,29.81,SSE,150,2.0,4.0,60,0.00,,,0.00,679,WeatherCatV1.21B27,2013-08-21 21:09:00,
2013-08-21 16:10:00,90.0,73.7,29.81,SE,126,3.0,7.0,59,0.00,,,0.00,675,WeatherCatV1.21B27,2013-08-21 21:10:00,
2013-08-21 16:13:00,90.0,73.7,29.81,SSE,152,4.0,12.0,59,0.00,,,0.00,670,WeatherCatV1.21B27,2013-08-21 21:13:00,
2013-08-21 16:14:00,90.1,73.3,29.81,SSW,198,5.0,9.0,58,0.00,,,0.00,664,WeatherCatV1.21B27,2013-08-21 21:14:00,
2013-08-21 16:15:00,90.2,73.4,29.81,ESE,119,1.0,12.0,58,0.00,,,0.00,664,WeatherCatV1.21B27,2013-08-21 21:15:00,
2013-08-21 16:18:00,90.1,72.8,29.81,SSE,163,6.0,11.0,57,0.00,,,0.00,656,WeatherCatV1.21B27,2013-08-21 21:18:00,
2013-08-21 16:19:00,89.9,73.1,29.81,SSW,205,5.0,11.0,58,0.00,,,0.00,647,WeatherCatV1.21B27,2013-08-21 21:19:00,
2013-08-21 16:20:00,89.8,73.0,29.81,SSE,157,6.0,11.0,58,0.00,,,0.00,642,WeatherCatV1.21B27,2013-08-21 21:20:00,
2013-08-21 16:21:00,89.8,73.0,29.81,SE,128,9.0,11.0,58,0.00,,,0.00,642,WeatherCatV1.21B27,2013-08-21 21:21:00,
2013-08-21 16:23:00,89.7,72.9,29.81,South,183,3.0,11.0,58,0.00,,,0.00,640,WeatherCatV1.21B27,2013-08-21 21:23:00,
2013-08-21 16:24:00,89.7,73.4,29.81,ENE,64,6.0,12.0,59,0.00,,,0.00,636,WeatherCatV1.21B27,2013-08-21 21:24:00,
2013-08-21 16:25:00,89.6,73.3,29.81,SE,131,11.0,12.0,59,0.00,,,0.00,635,WeatherCatV1.21B27,2013-08-21 21:25:00,
2013-08-21 16:26:00,89.6,73.3,29.81,SE,136,12.0,12.0,59,0.00,,,0.00,633,WeatherCatV1.21B27,2013-08-21 21:26:00,
2013-08-21 16:28:00,89.4,73.7,29.81,SSE,168,4.0,6.0,60,0.00,,,0.00,629,WeatherCatV1.21B27,2013-08-21 21:28:00,
2013-08-21 16:29:00,89.6,73.8,29.81,South,169,0.0,7.0,60,0.00,,,0.00,629,WeatherCatV1.21B27,2013-08-21 21:29:00,
2013-08-21 16:31:00,89.9,74.6,29.81,SE,142,3.0,7.0,61,0.00,,,0.00,622,WeatherCatV1.21B27,2013-08-21 21:31:00,
2013-08-21 16:33:00,90.0,74.2,29.81,SE,144,11.0,11.0,60,0.00,,,0.00,619,WeatherCatV1.21B27,2013-08-21 21:33:00,
2013-08-21 16:34:00,90.1,74.3,29.81,SE,129,4.0,14.0,60,0.00,,,0.00,612,WeatherCatV1.21B27,2013-08-21 21:34:00,
2013-08-21 16:35:00,90.1,74.3,29.81,SE,129,3.0,14.0,60,0.00,,,0.00,612,WeatherCatV1.21B27,2013-08-21 21:35:00,
2013-08-21 16:36:00,90.2,74.4,29.81,South,172,1.0,5.0,60,0.00,,,0.00,610,WeatherCatV1.21B27,2013-08-21 21:36:00,
2013-08-21 16:38:00,90.3,74.0,29.81,ESE,120,0.0,9.0,59,0.00,,,0.00,603,WeatherCatV1.21B27,2013-08-21 21:38:00,
2013-08-21 16:40:00,90.4,73.6,29.81,SE,146,2.0,17.0,58,0.00,,,0.00,599,WeatherCatV1.21B27,2013-08-21 21:40:00,
2013-08-21 16:41:00,90.2,73.4,29.81,SE,139,2.0,17.0,58,0.00,,,0.00,596,WeatherCatV1.21B27,2013-08-21 21:41:00,
2013-08-21 16:43:00,90.1,73.8,29.81,ESE,114,10.0,10.0,59,0.00,,,0.00,591,WeatherCatV1.21B27,2013-08-21 21:43:00,
2013-08-21 16:45:00,90.0,73.7,29.81,ESE,103,0.0,10.0,59,0.00,,,0.00,589,WeatherCatV1.21B27,2013-08-21 21:45:00,
2013-08-21 16:46:00,90.0,73.7,29.81,SSE,155,3.0,13.0,59,0.00,,,0.00,584,WeatherCatV1.21B27,2013-08-21 21:46:00,
2013-08-21 16:48:00,90.1,73.8,29.81,ESE,117,1.0,7.0,59,0.00,,,0.00,578,WeatherCatV1.21B27,2013-08-21 21:48:00,
2013-08-21 16:50:00,90.1,73.3,29.81,SE,134,2.0,10.0,58,0.00,,,0.00,577,WeatherCatV1.21B27,2013-08-21 21:50:00,
2013-08-21 16:51:00,90.0,73.7,29.81,SSE,161,0.0,6.0,59,0.00,,,0.00,571,WeatherCatV1.21B27,2013-08-21 21:51:00,
2013-08-21 16:54:00,90.1,73.8,29.80,SE,130,5.0,9.0,59,0.00,,,0.00,566,WeatherCatV1.21B27,2013-08-21 21:54:00,
2013-08-21 16:55:00,90.1,73.8,29.81,SE,129,2.0,7.0,59,0.00,,,0.00,564,WeatherCatV1.21B27,2013-08-21 21:55:00,
2013-08-21 16:56:00,90.1,73.8,29.81,SE,142,7.0,8.0,59,0.00,,,0.00,563,WeatherCatV1.21B27,2013-08-21 21:56:00,
2013-08-21 16:57:00,90.1,73.8,29.81,SE,135,5.0,8.0,59,0.00,,,0.00,559,WeatherCatV1.21B27,2013-08-21 21:57:00,
2013-08-21 16:59:00,90.0,74.2,29.81,SSE,150,2.0,12.0,60,0.00,,,0.00,554,WeatherCatV1.21B27,2013-08-21 21:59:00,
2013-08-21 17:00:00,89.9,73.1,29.81,ESE,123,4.0,11.0,58,0.00,,,0.00,550,WeatherCatV1.21B27,2013-08-21 22:00:00,
2013-08-21 17:01:00,89.9,73.6,29.81,East,91,2.0,14.0,59,0.00,,,0.00,552,WeatherCatV1.21B27,2013-08-21 22:01:00,
2013-08-21 17:03:00,89.9,73.6,29.81,South,172,2.0,14.0,59,0.00,,,0.00,550,WeatherCatV1.21B27,2013-08-21 22:03:00,
2013-08-21 17:04:00,90.0,73.7,29.81,South,179,3.0,11.0,59,0.00,,,0.00,547,WeatherCatV1.21B27,2013-08-21 22:04:00,
2013-08-21 17:05:00,90.1,73.8,29.81,SSE,154,16.0,17.0,59,0.00,,,0.00,515,WeatherCatV1.21B27,2013-08-21 22:05:00,
2013-08-21 17:06:00,90.1,73.3,29.81,SE,130,2.0,17.0,58,0.00,,,0.00,515,WeatherCatV1.21B27,2013-08-21 22:06:00,
2013-08-21 17:07:00,90.0,73.2,29.81,SE,133,6.0,17.0,58,0.00,,,0.00,510,WeatherCatV1.21B27,2013-08-21 22:07:00,
2013-08-21 17:08:00,89.9,73.6,29.81,SE,134,2.0,13.0,59,0.00,,,0.00,468,WeatherCatV1.21B27,2013-08-21 22:08:00,
2013-08-21 17:10:00,89.9,73.6,29.81,SE,128,3.0,6.0,59,0.00,,,0.00,506,WeatherCatV1.21B27,2013-08-21 22:10:00,
2013-08-21 17:11:00,89.8,73.5,29.81,SSE,149,5.0,7.0,59,0.00,,,0.00,473,WeatherCatV1.21B27,2013-08-21 22:11:00,
2013-08-21 17:12:00,89.8,73.5,29.81,SSW,202,5.0,7.0,59,0.00,,,0.00,448,WeatherCatV1.21B27,2013-08-21 22:12:00,
2013-08-21 17:13:00,89.9,74.1,29.80,SSE,159,3.0,6.0,60,0.00,,,0.00,450,WeatherCatV1.21B27,2013-08-21 22:13:00,
2013-08-21 17:15:00,90.2,74.4,29.80,SSE,160,5.0,12.0,60,0.00,,,0.00,436,WeatherCatV1.21B27,2013-08-21 22:15:00,
2013-08-21 17:16:00,90.3,74.5,29.80,ESE,123,0.0,12.0,60,0.00,,,0.00,436,WeatherCatV1.21B27,2013-08-21 22:16:00,
2013-08-21 17:17:00,90.3,74.5,29.80,SE,138,9.0,12.0,60,0.00,,,0.00,452,WeatherCatV1.21B27,2013-08-21 22:17:00,
2013-08-21 17:18:00,90.2,73.4,29.80,East,79,6.0,10.0,58,0.00,,,0.00,461,WeatherCatV1.21B27,2013-08-21 22:18:00,
2013-08-21 17:20:00,89.9,73.1,29.80,South,176,12.0,12.0,58,0.00,,,0.00,480,WeatherCatV1.21B27,2013-08-21 22:20:00,
2013-08-21 17:21:00,89.9,73.1,29.80,SE,132,6.0,12.0,58,0.00,,,0.00,480,WeatherCatV1.21B27,2013-08-21 22:21:00,
2013-08-21 17:22:00,89.8,73.0,29.80,SSW,195,7.0,12.0,58,0.00,,,0.00,482,WeatherCatV1.21B27,2013-08-21 22:22:00,
2013-08-21 17:23:00,89.8,73.0,29.80,SSE,164,5.0,12.0,58,0.00,,,0.00,483,WeatherCatV1.21B27,2013-08-21 22:23:00,
2013-08-21 17:25:00,89.8,73.0,29.80,SE,145,10.0,11.0,58,0.00,,,0.00,482,WeatherCatV1.21B27,2013-08-21 22:25:00,
2013-08-21 17:26:00,89.8,73.0,29.80,SSE,165,11.0,11.0,58,0.00,,,0.00,480,WeatherCatV1.21B27,2013-08-21 22:26:00,
2013-08-21 17:27:00,89.8,73.0,29.80,South,188,4.0,11.0,58,0.00,,,0.00,478,WeatherCatV1.21B27,2013-08-21 22:27:00,
2013-08-21 17:28:00,89.9,73.6,29.80,ESE,104,4.0,5.0,59,0.00,,,0.00,473,WeatherCatV1.21B27,2013-08-21 22:28:00,
2013-08-21 17:31:00,89.8,73.0,29.80,SE,144,7.0,11.0,58,0.00,,,0.00,469,WeatherCatV1.21B27,2013-08-21 22:31:00,
2013-08-21 17:32:00,89.9,73.6,29.80,South,188,1.0,11.0,59,0.00,,,0.00,469,WeatherCatV1.21B27,2013-08-21 22:32:00,
2013-08-21 17:34:00,90.0,73.7,29.80,SSW,198,2.0,10.0,59,0.00,,,0.00,459,WeatherCatV1.21B27,2013-08-21 22:34:00,
2013-08-21 17:36:00,90.0,73.7,29.80,ESE,115,7.0,9.0,59,0.00,,,0.00,394,WeatherCatV1.21B27,2013-08-21 22:36:00,
2013-08-21 17:37:00,89.9,73.1,29.80,SE,130,5.0,16.0,58,0.00,,,0.00,383,WeatherCatV1.21B27,2013-08-21 22:37:00,
2013-08-21 17:39:00,89.8,73.0,29.80,SE,125,5.0,16.0,58,0.00,,,0.00,404,WeatherCatV1.21B27,2013-08-21 22:39:00,
2013-08-21 17:41:00,89.8,73.0,29.80,SE,138,4.0,9.0,58,0.00,,,0.00,362,WeatherCatV1.21B27,2013-08-21 22:41:00,
2013-08-21 17:43:00,89.8,73.5,29.79,SE,142,4.0,7.0,59,0.00,,,0.00,364,WeatherCatV1.21B27,2013-08-21 22:43:00,
2013-08-21 17:44:00,89.7,73.4,29.80,SSE,163,7.0,7.0,59,0.00,,,0.00,359,WeatherCatV1.21B27,2013-08-21 22:44:00,
2013-08-21 17:46:00,89.6,73.3,29.80,SSE,147,0.0,6.0,59,0.00,,,0.00,367,WeatherCatV1.21B27,2013-08-21 22:46:00,
2013-08-21 17:48:00,89.7,73.9,29.80,SSE,165,2.0,11.0,60,0.00,,,0.00,392,WeatherCatV1.21B27,2013-08-21 22:48:00,
2013-08-21 17:49:00,89.7,73.4,29.80,SE,126,4.0,6.0,59,0.00,,,0.00,401,WeatherCatV1.21B27,2013-08-21 22:49:00,
2013-08-21 17:51:00,89.8,74.0,29.80,SE,135,0.0,6.0,60,0.00,,,0.00,411,WeatherCatV1.21B27,2013-08-21 22:51:00,
2013-08-21 17:52:00,89.8,73.5,29.80,ENE,67,2.0,9.0,59,0.00,,,0.00,413,WeatherCatV1.21B27,2013-08-21 22:52:00,
2013-08-21 17:53:00,89.9,73.6,29.80,SE,142,4.0,9.0,59,0.00,,,0.00,411,WeatherCatV1.21B27,2013-08-21 22:53:00,
2013-08-21 17:54:00,89.9,73.6,29.80,SE,132,4.0,12.0,59,0.00,,,0.00,406,WeatherCatV1.21B27,2013-08-21 22:54:00,
2013-08-21 17:56:00,89.8,73.5,29.79,SSE,164,1.0,6.0,59,0.00,,,0.00,399,WeatherCatV1.21B27,2013-08-21 22:56:00,
2013-08-21 17:57:00,89.9,74.1,29.79,SSE,165,0.0,4.0,60,0.00,,,0.00,392,WeatherCatV1.21B27,2013-08-21 22:57:00,
2013-08-21 17:58:00,90.0,74.2,29.79,South,180,1.0,6.0,60,0.00,,,0.00,385,WeatherCatV1.21B27,2013-08-21 22:58:00,
2013-08-21 17:59:00,90.0,74.2,29.79,South,178,2.0,6.0,60,0.00,,,0.00,385,WeatherCatV1.21B27,2013-08-21 22:59:00,
2013-08-21 18:01:00,89.9,74.1,29.79,SE,136,6.0,13.0,60,0.00,,,0.00,378,WeatherCatV1.21B27,2013-08-21 23:01:00,
2013-08-21 18:02:00,89.8,74.0,29.79,SSE,159,0.0,13.0,60,0.00,,,0.00,371,WeatherCatV1.21B27,2013-08-21 23:02:00,
2013-08-21 18:04:00,89.8,74.5,29.79,SE,128,2.0,7.0,61,0.00,,,0.00,366,WeatherCatV1.21B27,2013-08-21 23:04:00,
2013-08-21 18:06:00,89.7,74.4,29.80,ESE,103,2.0,9.0,61,0.00,,,0.00,352,WeatherCatV1.21B27,2013-08-21 23:06:00,
2013-08-21 18:07:00,89.7,74.4,29.79,ESE,104,2.0,9.0,61,0.00,,,0.00,352,WeatherCatV1.21B27,2013-08-21 23:07:00,
2013-08-21 18:09:00,89.5,74.2,29.79,South,183,2.0,10.0,61,0.00,,,0.00,345,WeatherCatV1.21B27,2013-08-21 23:09:00,
2013-08-21 18:10:00,89.4,74.6,29.79,SE,144,0.0,10.0,62,0.00,,,0.00,341,WeatherCatV1.21B27,2013-08-21 23:10:00,
2013-08-21 18:11:00,89.4,74.6,29.79,SSE,153,6.0,6.0,62,0.00,,,0.00,338,WeatherCatV1.21B27,2013-08-21 23:11:00,
2013-08-21 18:12:00,89.4,74.6,29.79,SE,125,2.0,7.0,62,0.00,,,0.00,336,WeatherCatV1.21B27,2013-08-21 23:12:00,
2013-08-21 18:13:00,89.3,74.1,29.79,SE,141,2.0,13.0,61,0.00,,,0.00,330,WeatherCatV1.21B27,2013-08-21 23:13:00,
2013-08-21 18:14:00,89.2,74.4,29.79,South,172,10.0,13.0,62,0.00,,,0.00,322,WeatherCatV1.21B27,2013-08-21 23:14:00,
2013-08-21 18:15:00,89.2,74.4,29.79,SE,130,3.0,9.0,62,0.00,,,0.00,309,WeatherCatV1.21B27,2013-08-21 23:15:00,
2013-08-21 18:17:00,89.0,74.2,29.79,SSE,160,2.0,12.0,62,0.00,,,0.00,309,WeatherCatV1.21B27,2013-08-21 23:17:00,
2013-08-21 18:18:00,88.9,74.2,29.79,SSE,164,8.0,13.0,62,0.00,,,0.00,301,WeatherCatV1.21B27,2013-08-21 23:18:00,
2013-08-21 18:19:00,88.8,74.1,29.79,SE,126,3.0,13.0,62,0.00,,,0.00,258,WeatherCatV1.21B27,2013-08-21 23:19:00,
2013-08-21 18:20:00,88.7,74.0,29.79,SSW,201,2.0,7.0,62,0.00,,,0.00,272,WeatherCatV1.21B27,2013-08-21 23:20:00,
2013-08-21 18:22:00,88.6,74.3,29.79,East,98,4.0,13.0,63,0.00,,,0.00,294,WeatherCatV1.21B27,2013-08-21 23:22:00,
2013-08-21 18:23:00,88.5,74.3,29.79,South,175,13.0,13.0,63,0.00,,,0.00,232,WeatherCatV1.21B27,2013-08-21 23:23:00,
2013-08-21 18:25:00,88.4,74.2,29.79,South,185,2.0,13.0,63,0.00,,,0.00,223,WeatherCatV1.21B27,2013-08-21 23:25:00,
2013-08-21 18:27:00,88.3,74.5,29.79,SE,126,0.0,9.0,64,0.00,,,0.00,121,WeatherCatV1.21B27,2013-08-21 23:27:00,
2013-08-21 18:28:00,88.2,74.4,29.79,SSW,202,7.0,7.0,64,0.00,,,0.00,127,WeatherCatV1.21B27,2013-08-21 23:28:00,
2013-08-21 18:30:00,88.1,74.3,29.79,ESE,105,4.0,13.0,64,0.00,,,0.00,223,WeatherCatV1.21B27,2013-08-21 23:30:00,
2013-08-21 18:33:00,87.8,74.1,29.79,SSW,192,10.0,11.0,64,0.00,,,0.00,167,WeatherCatV1.21B27,2013-08-21 23:33:00,
2013-08-21 18:35:00,87.7,74.4,29.79,SSE,158,6.0,7.0,65,0.00,,,0.00,134,WeatherCatV1.21B27,2013-08-21 23:35:00,
2013-08-21 18:38:00,87.5,74.2,29.79,SE,146,4.0,7.0,65,0.00,,,0.00,207,WeatherCatV1.21B27,2013-08-21 23:38:00,
2013-08-21 18:40:00,87.4,74.2,29.79,ESE,104,2.0,3.0,65,0.00,,,0.00,229,WeatherCatV1.21B27,2013-08-21 23:40:00,
2013-08-21 18:41:00,87.4,74.2,29.79,SW,222,5.0,5.0,65,0.00,,,0.00,185,WeatherCatV1.21B27,2013-08-21 23:41:00,
2013-08-21 18:43:00,87.4,74.6,29.79,SE,145,5.0,7.0,66,0.00,,,0.00,192,WeatherCatV1.21B27,2013-08-21 23:43:00,
2013-08-21 18:45:00,87.3,74.5,29.79,SSE,155,6.0,13.0,66,0.00,,,0.00,239,WeatherCatV1.21B27,2013-08-21 23:45:00,
2013-08-21 18:46:00,87.3,74.5,29.79,SE,132,4.0,13.0,66,0.00,,,0.00,239,WeatherCatV1.21B27,2013-08-21 23:46:00,
2013-08-21 18:48:00,87.2,74.0,29.79,SSE,159,2.0,7.0,65,0.00,,,0.00,218,WeatherCatV1.21B27,2013-08-21 23:48:00,
2013-08-21 18:51:00,87.2,74.0,29.78,ESE,106,5.0,13.0,65,0.00,,,0.00,225,WeatherCatV1.21B27,2013-08-21 23:51:00,
2013-08-21 18:53:00,87.1,73.9,29.79,SE,128,7.0,16.0,65,0.00,,,0.00,202,WeatherCatV1.21B27,2013-08-21 23:53:00,
2013-08-21 18:54:00,87.1,73.9,29.79,ESE,113,9.0,10.0,65,0.00,,,0.00,192,WeatherCatV1.21B27,2013-08-21 23:54:00,
2013-08-21 18:56:00,87.1,73.9,29.79,SSE,165,6.0,7.0,65,0.00,,,0.00,223,WeatherCatV1.21B27,2013-08-21 23:56:00,
2013-08-21 18:58:00,87.1,73.9,29.79,SSE,161,4.0,10.0,65,0.00,,,0.00,209,WeatherCatV1.21B27,2013-08-21 23:58:00,
2013-08-21 18:59:00,87.0,73.8,29.78,SSE,148,3.0,10.0,65,0.00,,,0.00,209,WeatherCatV1.21B27,2013-08-21 23:59:00,
2013-08-21 19:01:00,87.0,74.2,29.78,SSE,168,5.0,7.0,66,0.00,,,0.00,193,WeatherCatV1.21B27,2013-08-22 00:01:00,
2013-08-21 19:03:00,86.9,73.7,29.78,SSE,152,3.0,10.0,65,0.00,,,0.00,185,WeatherCatV1.21B27,2013-08-22 00:03:00,
2013-08-21 19:04:00,86.9,73.7,29.78,SSE,149,4.0,8.0,65,0.00,,,0.00,185,WeatherCatV1.21B27,2013-08-22 00:04:00,
2013-08-21 19:06:00,86.8,74.0,29.78,SE,124,5.0,9.0,66,0.00,,,0.00,174,WeatherCatV1.21B27,2013-08-22 00:06:00,
2013-08-21 19:09:00,86.7,73.9,29.79,ESE,122,1.0,10.0,66,0.00,,,0.00,162,WeatherCatV1.21B27,2013-08-22 00:09:00,
2013-08-21 19:10:00,86.6,73.8,29.78,South,183,0.0,7.0,66,0.00,,,0.00,158,WeatherCatV1.21B27,2013-08-22 00:10:00,
2013-08-21 19:11:00,86.6,73.8,29.78,SSE,160,4.0,11.0,66,0.00,,,0.00,155,WeatherCatV1.21B27,2013-08-22 00:11:00,
2013-08-21 19:12:00,86.6,73.8,29.79,SSE,156,0.0,11.0,66,0.00,,,0.00,148,WeatherCatV1.21B27,2013-08-22 00:12:00,
2013-08-21 19:14:00,86.5,73.8,29.78,SSE,164,2.0,9.0,66,0.00,,,0.00,125,WeatherCatV1.21B27,2013-08-22 00:14:00,
2013-08-21 19:15:00,86.5,73.8,29.78,SSE,159,2.0,7.0,66,0.00,,,0.00,109,WeatherCatV1.21B27,2013-08-22 00:15:00,
2013-08-21 19:16:00,86.3,73.6,29.79,SSE,154,4.0,7.0,66,0.00,,,0.00,79,WeatherCatV1.21B27,2013-08-22 00:16:00,
2013-08-21 19:17:00,86.3,73.6,29.78,SE,146,1.0,7.0,66,0.00,,,0.00,76,WeatherCatV1.21B27,2013-08-22 00:17:00,
2013-08-21 19:19:00,86.1,73.8,29.78,SSE,163,3.0,5.0,67,0.00,,,0.00,72,WeatherCatV1.21B27,2013-08-22 00:19:00,
2013-08-21 19:20:00,86.1,73.8,29.78,SSW,210,3.0,10.0,67,0.00,,,0.00,90,WeatherCatV1.21B27,2013-08-22 00:20:00,
2013-08-21 19:22:00,86.0,73.7,29.78,SE,132,2.0,10.0,67,0.00,,,0.00,74,WeatherCatV1.21B27,2013-08-22 00:22:00,
2013-08-21 19:24:00,85.8,73.5,29.78,SE,140,6.0,11.0,67,0.00,,,0.00,83,WeatherCatV1.21B27,2013-08-22 00:24:00,
2013-08-21 19:25:00,85.8,73.5,29.78,SE,138,2.0,6.0,67,0.00,,,0.00,81,WeatherCatV1.21B27,2013-08-22 00:25:00,
2013-08-21 19:27:00,85.7,73.4,29.78,SSW,212,4.0,10.0,67,0.00,,,0.00,77,WeatherCatV1.21B27,2013-08-22 00:27:00,
2013-08-21 19:29:00,85.6,73.3,29.78,SSE,155,0.0,12.0,67,0.00,,,0.00,70,WeatherCatV1.21B27,2013-08-22 00:29:00,
2013-08-21 19:30:00,85.5,73.7,29.78,ESE,123,1.0,5.0,68,0.00,,,0.00,67,WeatherCatV1.21B27,2013-08-22 00:30:00,
2013-08-21 19:32:00,85.5,73.3,29.78,SE,130,4.0,5.0,67,0.00,,,0.00,67,WeatherCatV1.21B27,2013-08-22 00:32:00,
2013-08-21 19:35:00,85.4,73.6,29.78,SSE,152,6.0,6.0,68,0.00,,,0.00,58,WeatherCatV1.21B27,2013-08-22 00:35:00,
2013-08-21 19:36:00,85.3,73.5,29.78,SSW,194,3.0,7.0,68,0.00,,,0.00,53,WeatherCatV1.21B27,2013-08-22 00:36:00,
2013-08-21 19:37:00,85.2,73.4,29.78,SSE,152,10.0,10.0,68,0.00,,,0.00,40,WeatherCatV1.21B27,2013-08-22 00:37:00,
2013-08-21 19:38:00,85.2,73.4,29.78,South,175,4.0,10.0,68,0.00,,,0.00,40,WeatherCatV1.21B27,2013-08-22 00:38:00,
2013-08-21 19:40:00,85.0,73.7,29.78,SSE,155,2.0,6.0,69,0.00,,,0.00,32,WeatherCatV1.21B27,2013-08-22 00:40:00,
2013-08-21 19:41:00,84.8,73.5,29.78,SE,140,2.0,4.0,69,0.00,,,0.00,30,WeatherCatV1.21B27,2013-08-22 00:41:00,
2013-08-21 19:42:00,84.8,73.5,29.78,SE,140,3.0,4.0,69,0.00,,,0.00,28,WeatherCatV1.21B27,2013-08-22 00:42:00,
2013-08-21 19:43:00,84.8,73.5,29.78,SE,143,5.0,7.0,69,0.00,,,0.00,25,WeatherCatV1.21B27,2013-08-22 00:43:00,
2013-08-21 19:45:00,84.6,73.3,29.78,SE,132,5.0,10.0,69,0.00,,,0.00,19,WeatherCatV1.21B27,2013-08-22 00:45:00,
2013-08-21 19:47:00,84.5,73.2,29.78,SE,144,3.0,4.0,69,0.00,,,0.00,16,WeatherCatV1.21B27,2013-08-22 00:47:00,
2013-08-21 19:48:00,84.4,73.5,29.78,SSE,149,2.0,6.0,70,0.00,,,0.00,14,WeatherCatV1.21B27,2013-08-22 00:48:00,
2013-08-21 19:50:00,84.3,73.4,29.78,South,188,5.0,5.0,70,0.00,,,0.00,11,WeatherCatV1.21B27,2013-08-22 00:50:00,
2013-08-21 19:51:00,84.2,73.3,29.78,South,178,3.0,6.0,70,0.00,,,0.00,11,WeatherCatV1.21B27,2013-08-22 00:51:00,
2013-08-21 19:52:00,84.1,73.2,29.78,ESE,123,2.0,7.0,70,0.00,,,0.00,11,WeatherCatV1.21B27,2013-08-22 00:52:00,
2013-08-21 19:53:00,84.1,73.2,29.78,South,169,2.0,7.0,70,0.00,,,0.00,9,WeatherCatV1.21B27,2013-08-22 00:53:00,
2013-08-21 19:55:00,84.0,73.1,29.78,SSW,207,0.0,14.0,70,0.00,,,0.00,9,WeatherCatV1.21B27,2013-08-22 00:55:00,
2013-08-21 19:56:00,84.0,73.1,29.78,South,172,2.0,6.0,70,0.00,,,0.00,9,WeatherCatV1.21B27,2013-08-22 00:56:00,
2013-08-21 19:57:00,83.9,73.0,29.77,SSE,148,4.0,5.0,70,0.00,,,0.00,9,WeatherCatV1.21B27,2013-08-22 00:57:00,
2013-08-21 19:58:00,83.9,73.0,29.77,SSW,211,8.0,11.0,70,0.00,,,0.00,9,WeatherCatV1.21B27,2013-08-22 00:58:00,
2013-08-21 20:01:00,83.8,73.4,29.77,East,98,1.0,3.0,71,0.00,,,0.00,7,WeatherCatV1.21B27,2013-08-22 01:01:00,
2013-08-21 20:02:00,83.7,73.3,29.77,SSE,150,3.0,7.0,71,0.00,,,0.00,7,WeatherCatV1.21B27,2013-08-22 01:02:00,
2013-08-21 20:03:00,83.6,73.2,29.77,ESE,115,8.0,9.0,71,0.00,,,0.00,7,WeatherCatV1.21B27,2013-08-22 01:03:00,
2013-08-21 20:06:00,83.5,73.1,29.77,SSE,150,2.0,10.0,71,0.00,,,0.00,7,WeatherCatV1.21B27,2013-08-22 01:06:00,
2013-08-21 20:07:00,83.4,73.0,29.77,South,179,3.0,5.0,71,0.00,,,0.00,7,WeatherCatV1.21B27,2013-08-22 01:07:00,
2013-08-21 20:08:00,83.4,73.0,29.77,South,179,4.0,5.0,71,0.00,,,0.00,7,WeatherCatV1.21B27,2013-08-22 01:08:00,
2013-08-21 20:09:00,83.4,73.0,29.77,SSE,153,4.0,5.0,71,0.00,,,0.00,7,WeatherCatV1.21B27,2013-08-22 01:09:00,
2013-08-21 20:11:00,83.2,73.2,29.77,South,169,3.0,8.0,72,0.00,,,0.00,5,WeatherCatV1.21B27,2013-08-22 01:11:00,
2013-08-21 20:12:00,83.2,73.2,29.77,SSW,196,5.0,10.0,72,0.00,,,0.00,5,WeatherCatV1.21B27,2013-08-22 01:12:00,
2013-08-21 20:13:00,83.1,73.1,29.77,South,188,3.0,12.0,72,0.00,,,0.00,5,WeatherCatV1.21B27,2013-08-22 01:13:00,
2013-08-21 20:14:00,83.1,73.1,29.77,South,187,0.0,12.0,72,0.00,,,0.00,5,WeatherCatV1.21B27,2013-08-22 01:14:00,
2013-08-21 20:16:00,83.0,73.0,29.77,South,186,0.0,10.0,72,0.00,,,0.00,0,WeatherCatV1.21B27,2013-08-22 01:16:00,
2013-08-21 20:17:00,82.9,72.9,29.77,South,183,1.0,4.0,72,0.00,,,0.00,0,WeatherCatV1.21B27,2013-08-22 01:17:00,
2013-08-21 20:19:00,82.9,72.9,29.77,SSE,167,3.0,5.0,72,0.00,,,0.00,0,WeatherCatV1.21B27,2013-08-22 01:19:00,
2013-08-21 20:21:00,82.8,72.8,29.77,SSE,161,6.0,6.0,72,0.00,,,0.00,0,WeatherCatV1.21B27,2013-08-22 01:21:00,
2013-08-21 20:22:00,82.7,73.1,29.77,SSE,158,3.0,6.0,73,0.00,,,0.00,0,WeatherCatV1.21B27,2013-08-22 01:22:00,
2013-08-21 20:24:00,82.6,73.0,29.77,South,191,7.0,12.0,73,0.00,,,0.00,0,WeatherCatV1.21B27,2013-08-22 01:24:00,
2013-08-21 20:26:00,82.5,72.9,29.77,South,186,3.0,6.0,73,0.00,,,0.00,0,WeatherCatV1.21B27,2013-08-22 01:26:00,
2013-08-21 20:27:00,82.5,72.9,29.77,SSW,202,7.0,7.0,73,0.00,,,0.00,0,WeatherCatV1.21B27,2013-08-22 01:27:00,
2013-08-21 20:28:00,82.5,72.5,29.78,South,180,2.0,12.0,72,0.00,,,0.00,0,WeatherCatV1.21B27,2013-08-22 01:28:00,
2013-08-21 20:29:00,82.4,72.8,29.78,SSE,156,3.0,9.0,73,0.00,,,0.00,0,WeatherCatV1.21B27,2013-08-22 01:29:00,
2013-08-21 20:31:00,82.4,72.8,29.78,SSW,200,5.0,9.0,73,0.00,,,0.00,0,WeatherCatV1.21B27,2013-08-22 01:31:00,
2013-08-21 20:32:00,82.3,72.8,29.78,South,180,3.0,9.0,73,0.00,,,0.00,0,WeatherCatV1.21B27,2013-08-22 01:32:00,
2013-08-21 20:33:00,82.3,72.8,29.78,South,179,4.0,5.0,73,0.00,,,0.00,0,WeatherCatV1.21B27,2013-08-22 01:33:00,
2013-08-21 20:34:00,82.2,72.7,29.78,SE,140,3.0,12.0,73,0.00,,,0.00,0,WeatherCatV1.21B27,2013-08-22 01:34:00,
2013-08-21 20:35:00,82.2,72.7,29.78,SSW,201,10.0,12.0,73,0.00,,,0.00,0,WeatherCatV1.21B27,2013-08-22 01:35:00,
2013-08-21 20:37:00,82.2,72.7,29.78,SE,128,4.0,10.0,73,0.00,,,0.00,0,WeatherCatV1.21B27,2013-08-22 01:37:00,
2013-08-21 20:38:00,82.1,72.6,29.78,South,177,2.0,8.0,73,0.00,,,0.00,0,WeatherCatV1.21B27,2013-08-22 01:38:00,
2013-08-21 20:39:00,82.1,72.6,29.78,SSW,194,3.0,11.0,73,0.00,,,0.00,0,WeatherCatV1.21B27,2013-08-22 01:39:00,
2013-08-21 20:40:00,82.1,72.6,29.78,South,180,3.0,11.0,73,0.00,,,0.00,0,WeatherCatV1.21B27,2013-08-22 01:40:00,
2013-08-21 20:42:00,82.0,72.5,29.79,South,180,2.0,4.0,73,0.00,,,0.00,0,WeatherCatV1.21B27,2013-08-22 01:42:00,
2013-08-21 20:43:00,82.0,72.5,29.78,SSW,211,7.0,10.0,73,0.00,,,0.00,0,WeatherCatV1.21B27,2013-08-22 01:43:00,
2013-08-21 20:44:00,81.9,72.4,29.79,SSW,207,3.0,10.0,73,0.00,,,0.00,0,WeatherCatV1.21B27,2013-08-22 01:44:00,
2013-08-21 20:45:00,81.9,72.4,29.78,SSE,165,4.0,7.0,73,0.00,,,0.00,0,WeatherCatV1.21B27,2013-08-22 01:45:00,
2013-08-21 20:47:00,81.8,72.3,29.78,SSW,192,5.0,7.0,73,0.00,,,0.00,0,WeatherCatV1.21B27,2013-08-22 01:47:00,
2013-08-21 20:48:00,81.8,72.3,29.78,South,173,2.0,5.0,73,0.00,,,0.00,0,WeatherCatV1.21B27,2013-08-22 01:48:00,
2013-08-21 20:49:00,81.8,72.3,29.79,South,185,0.0,9.0,73,0.00,,,0.00,0,WeatherCatV1.21B27,2013-08-22 01:49:00,
2013-08-21 20:51:00,81.7,72.2,29.79,South,173,5.0,7.0,73,0.00,,,0.00,0,WeatherCatV1.21B27,2013-08-22 01:51:00,
2013-08-21 20:52:00,81.7,72.2,29.79,SSE,156,1.0,7.0,73,0.00,,,0.00,0,WeatherCatV1.21B27,2013-08-22 01:52:00,
2013-08-21 20:53:00,81.6,72.1,29.79,SSE,148,2.0,7.0,73,0.00,,,0.00,0,WeatherCatV1.21B27,2013-08-22 01:53:00,
2013-08-21 20:54:00,81.6,72.1,29.79,SSE,155,3.0,6.0,73,0.00,,,0.00,0,WeatherCatV1.21B27,2013-08-22 01:54:00,
2013-08-21 20:56:00,81.5,72.0,29.79,SSE,167,2.0,6.0,73,0.00,,,0.00,0,WeatherCatV1.21B27,2013-08-22 01:56:00,
2013-08-21 20:57:00,81.5,72.0,29.79,SSW,197,8.0,8.0,73,0.00,,,0.00,0,WeatherCatV1.21B27,2013-08-22 01:57:00,
2013-08-21 20:58:00,81.4,71.9,29.79,SE,132,10.0,10.0,73,0.00,,,0.00,0,WeatherCatV1.21B27,2013-08-22 01:58:00,
2013-08-21 20:59:00,81.4,71.9,29.79,SSW,201,6.0,10.0,73,0.00,,,0.00,0,WeatherCatV1.21B27,2013-08-22 01:59:00,
2013-08-21 21:01:00,81.4,71.9,29.80,South,183,5.0,11.0,73,0.00,,,0.00,0,WeatherCatV1.21B27,2013-08-22 02:01:00,
2013-08-21 21:02:00,81.4,71.9,29.80,South,187,5.0,7.0,73,0.00,,,0.00,0,WeatherCatV1.21B27,2013-08-22 02:02:00,
2013-08-21 21:03:00,81.3,71.8,29.80,South,186,4.0,7.0,73,0.00,,,0.00,0,WeatherCatV1.21B27,2013-08-22 02:03:00,
2013-08-21 21:04:00,81.3,71.8,29.80,South,186,2.0,7.0,73,0.00,,,0.00,0,WeatherCatV1.21B27,2013-08-22 02:04:00,
2013-08-21 21:05:00,81.3,71.8,29.80,SSW,207,7.0,11.0,73,0.00,,,0.00,0,WeatherCatV1.21B27,2013-08-22 02:05:00,
2013-08-21 21:06:00,81.2,71.7,29.80,South,178,2.0,11.0,73,0.00,,,0.00,0,WeatherCatV1.21B27,2013-08-22 02:06:00,
2013-08-21 21:07:00,81.2,71.7,29.80,South,180,5.0,6.0,73,0.00,,,0.00,0,WeatherCatV1.21B27,2013-08-22 02:07:00,
2013-08-21 21:08:00,81.1,71.6,29.80,South,175,4.0,7.0,73,0.00,,,0.00,0,WeatherCatV1.21B27,2013-08-22 02:08:00,
2013-08-21 21:09:00,81.1,71.6,29.80,South,187,5.0,9.0,73,0.00,,,0.00,0,WeatherCatV1.21B27,2013-08-22 02:09:00,
2013-08-21 21:10:00,81.1,71.6,29.80,South,186,7.0,9.0,73,0.00,,,0.00,0,WeatherCatV1.21B27,2013-08-22 02:10:00,
2013-08-21 21:11:00,81.0,71.5,29.80,South,175,5.0,7.0,73,0.00,,,0.00,0,WeatherCatV1.21B27,2013-08-22 02:11:00,
2013-08-21 21:12:00,81.0,71.5,29.80,South,173,5.0,7.0,73,0.00,,,0.00,0,WeatherCatV1.21B27,2013-08-22 02:12:00,
2013-08-21 21:14:00,81.0,71.1,29.80,SSE,161,5.0,5.0,72,0.00,,,0.00,0,WeatherCatV1.21B27,2013-08-22 02:14:00,
2013-08-21 21:15:00,81.0,71.1,29.79,SSE,165,4.0,5.0,72,0.00,,,0.00,0,WeatherCatV1.21B27,2013-08-22 02:15:00,
2013-08-21 21:16:00,80.9,71.0,29.80,SSE,150,0.0,7.0,72,0.00,,,0.00,0,WeatherCatV1.21B27,2013-08-22 02:16:00,
2013-08-21 21:18:00,80.9,71.0,29.80,SSE,168,4.0,11.0,72,0.00,,,0.00,0,WeatherCatV1.21B27,2013-08-22 02:18:00,
2013-08-21 21:19:00,80.9,71.0,29.80,South,172,0.0,11.0,72,0.00,,,0.00,0,WeatherCatV1.21B27,2013-08-22 02:19:00,
2013-08-21 21:20:00,80.9,71.0,29.80,South,173,3.0,11.0,72,0.00,,,0.00,0,WeatherCatV1.21B27,2013-08-22 02:20:00,
2013-08-21 21:22:00,81.0,71.1,29.80,SSW,195,1.0,7.0,72,0.00,,,0.00,0,WeatherCatV1.21B27,2013-08-22 02:22:00,
2013-08-21 21:24:00,81.0,71.1,29.80,South,176,3.0,7.0,72,0.00,,,0.00,0,WeatherCatV1.21B27,2013-08-22 02:24:00,
2013-08-21 21:25:00,81.0,71.1,29.80,South,171,2.0,7.0,72,0.00,,,0.00,0,WeatherCatV1.21B27,2013-08-22 02:25:00,
2013-08-21 21:27:00,81.0,71.1,29.80,South,187,7.0,7.0,72,0.00,,,0.00,0,WeatherCatV1.21B27,2013-08-22 02:27:00,
2013-08-21 21:29:00,80.9,70.6,29.80,SSW,192,2.0,9.0,71,0.00,,,0.00,0,WeatherCatV1.21B27,2013-08-22 02:29:00,
2013-08-21 21:30:00,80.9,70.6,29.80,SSW,194,3.0,12.0,71,0.00,,,0.00,0,WeatherCatV1.21B27,2013-08-22 02:30:00,
2013-08-21 21:32:00,80.9,70.6,29.80,South,186,4.0,6.0,71,0.00,,,0.00,0,WeatherCatV1.21B27,2013-08-22 02:32:00,
2013-08-21 21:34:00,80.9,70.6,29.80,South,178,6.0,15.0,71,0.00,,,0.00,0,WeatherCatV1.21B27,2013-08-22 02:34:00,
2013-08-21 21:35:00,80.8,70.5,29.80,SSE,148,4.0,6.0,71,0.00,,,0.00,0,WeatherCatV1.21B27,2013-08-22 02:35:00,
2013-08-21 21:36:00,80.8,70.5,29.80,SSE,150,4.0,10.0,71,0.00,,,0.00,0,WeatherCatV1.21B27,2013-08-22 02:36:00,
2013-08-21 21:37:00,80.8,70.5,29.80,SSW,192,1.0,10.0,71,0.00,,,0.00,0,WeatherCatV1.21B27,2013-08-22 02:37:00,
2013-08-21 21:39:00,80.7,70.4,29.80,SSE,163,3.0,10.0,71,0.00,,,0.00,0,WeatherCatV1.21B27,2013-08-22 02:39:00,
2013-08-21 21:40:00,80.6,70.3,29.79,SSE,168,2.0,10.0,71,0.00,,,0.00,0,WeatherCatV1.21B27,2013-08-22 02:40:00,
2013-08-21 21:41:00,80.6,70.3,29.80,SSW,198,3.0,10.0,71,0.00,,,0.00,0,WeatherCatV1.21B27,2013-08-22 02:41:00,
2013-08-21 21:42:00,80.5,70.6,29.79,SE,137,1.0,7.0,72,0.00,,,0.00,0,WeatherCatV1.21B27,2013-08-22 02:42:00,
2013-08-21 21:44:00,80.4,70.5,29.80,SSE,163,3.0,7.0,72,0.00,,,0.00,0,WeatherCatV1.21B27,2013-08-22 02:44:00,
2013-08-21 21:45:00,80.4,70.5,29.80,SSW,211,6.0,10.0,72,0.00,,,0.00,0,WeatherCatV1.21B27,2013-08-22 02:45:00,
2013-08-21 21:46:00,80.4,70.5,29.80,SSW,212,5.0,10.0,72,0.00,,,0.00,0,WeatherCatV1.21B27,2013-08-22 02:46:00,
2013-08-21 21:47:00,80.3,70.4,29.80,SSW,199,3.0,7.0,72,0.00,,,0.00,0,WeatherCatV1.21B27,2013-08-22 02:47:00,
2013-08-21 21:49:00,80.2,70.3,29.79,South,190,3.0,12.0,72,0.00,,,0.00,0,WeatherCatV1.21B27,2013-08-22 02:49:00,
2013-08-21 21:50:00,80.2,70.3,29.80,SSE,155,4.0,12.0,72,0.00,,,0.00,0,WeatherCatV1.21B27,2013-08-22 02:50:00,
2013-08-21 21:51:00,80.2,70.3,29.79,SSE,159,3.0,6.0,72,0.00,,,0.00,0,WeatherCatV1.21B27,2013-08-22 02:51:00,
2013-08-21 21:53:00,80.1,70.2,29.80,SSE,163,3.0,10.0,72,0.00,,,0.00,0,WeatherCatV1.21B27,2013-08-22 02:53:00,
2013-08-21 21:54:00,80.0,70.1,29.80,South,182,14.0,14.0,72,0.00,,,0.00,0,WeatherCatV1.21B27,2013-08-22 02:54:00,
2013-08-21 21:55:00,80.0,70.1,29.79,SE,144,3.0,14.0,72,0.00,,,0.00,0,WeatherCatV1.21B27,2013-08-22 02:55:00,
2013-08-21 21:56:00,80.0,70.1,29.79,SE,137,4.0,14.0,72,0.00,,,0.00,0,WeatherCatV1.21B27,2013-08-22 02:56:00,
2013-08-21 21:58:00,79.9,70.0,29.79,SSE,155,7.0,9.0,72,0.00,,,0.00,0,WeatherCatV1.21B27,2013-08-22 02:58:00,
2013-08-21 22:00:00,79.8,69.9,29.79,SSE,147,3.0,7.0,72,0.00,,,0.00,0,WeatherCatV1.21B27,2013-08-22 03:00:00,
2013-08-21 22:01:00,79.8,69.9,29.79,SSE,159,0.0,12.0,72,0.00,,,0.00,0,WeatherCatV1.21B27,2013-08-22 03:01:00,
2013-08-21 22:03:00,79.7,69.8,29.79,South,182,6.0,6.0,72,0.00,,,0.00,0,WeatherCatV1.21B27,2013-08-22 03:03:00,
2013-08-21 22:05:00,79.6,69.8,29.79,South,179,2.0,11.0,72,0.00,,,0.00,0,WeatherCatV1.21B27,2013-08-22 03:05:00,
2013-08-21 22:06:00,79.6,69.8,29.78,SE,134,3.0,7.0,72,0.00,,,0.00,0,WeatherCatV1.21B27,2013-08-22 03:06:00,
2013-08-21 22:08:00,79.5,69.7,29.78,South,187,0.0,9.0,72,0.00,,,0.00,0,WeatherCatV1.21B27,2013-08-22 03:08:00,
2013-08-21 22:10:00,79.4,69.6,29.78,SSE,158,1.0,9.0,72,0.00,,,0.00,0,WeatherCatV1.21B27,2013-08-22 03:10:00,
2013-08-21 22:11:00,79.4,69.6,29.78,South,184,4.0,6.0,72,0.00,,,0.00,0,WeatherCatV1.21B27,2013-08-22 03:11:00,
2013-08-21 22:13:00,79.3,69.9,29.78,SE,144,5.0,5.0,73,0.00,,,0.00,0,WeatherCatV1.21B27,2013-08-22 03:13:00,
2013-08-21 22:15:00,79.2,69.8,29.78,SE,146,7.0,11.0,73,0.00,,,0.00,0,WeatherCatV1.21B27,2013-08-22 03:15:00,
2013-08-21 22:16:00,79.2,69.8,29.78,SW,217,6.0,12.0,73,0.00,,,0.00,0,WeatherCatV1.21B27,2013-08-22 03:16:00,
2013-08-21 22:17:00,79.2,69.8,29.78,SW,216,3.0,12.0,73,0.00,,,0.00,0,WeatherCatV1.21B27,2013-08-22 03:17:00,
2013-08-21 22:19:00,79.1,69.7,29.78,South,187,4.0,12.0,73,0.00,,,0.00,0,WeatherCatV1.21B27,2013-08-22 03:19:00,
2013-08-21 22:20:00,79.1,69.7,29.79,South,176,5.0,13.0,73,0.00,,,0.00,0,WeatherCatV1.21B27,2013-08-22 03:20:00,
2013-08-21 22:21:00,79.0,69.6,29.79,South,184,7.0,13.0,73,0.00,,,0.00,0,WeatherCatV1.21B27,2013-08-22 03:21:00,
2013-08-21 22:22:00,79.0,69.6,29.78,SSW,211,3.0,13.0,73,0.00,,,0.00,0,WeatherCatV1.21B27,2013-08-22 03:22:00,
2013-08-21 22:24:00,78.9,69.5,29.79,SSE,151,7.0,13.0,73,0.00,,,0.00,0,WeatherCatV1.21B27,2013-08-22 03:24:00,
2013-08-21 22:26:00,78.9,69.5,29.79,South,175,4.0,13.0,73,0.00,,,0.00,0,WeatherCatV1.21B27,2013-08-22 03:26:00,
2013-08-21 22:27:00,78.9,69.5,29.79,SSE,168,9.0,10.0,73,0.00,,,0.00,0,WeatherCatV1.21B27,2013-08-22 03:27:00,
2013-08-21 22:29:00,78.8,69.4,29.79,South,169,7.0,9.0,73,0.00,,,0.00,0,WeatherCatV1.21B27,2013-08-22 03:29:00,
2013-08-21 22:31:00,78.7,69.3,29.79,SSW,196,4.0,10.0,73,0.00,,,0.00,0,WeatherCatV1.21B27,2013-08-22 03:31:00,
2013-08-21 22:32:00,78.7,69.3,29.79,South,178,9.0,13.0,73,0.00,,,0.00,0,WeatherCatV1.21B27,2013-08-22 03:32:00,
2013-08-21 22:34:00,78.7,69.3,29.79,South,170,4.0,10.0,73,0.00,,,0.00,0,WeatherCatV1.21B27,2013-08-22 03:34:00,
2013-08-21 22:36:00,78.7,69.3,29.79,SSW,211,7.0,10.0,73,0.00,,,0.00,0,WeatherCatV1.21B27,2013-08-22 03:36:00,
2013-08-21 22:37:00,78.7,69.3,29.79,South,174,4.0,9.0,73,0.00,,,0.00,0,WeatherCatV1.21B27,2013-08-22 03:37:00,
2013-08-21 22:40:00,78.7,69.3,29.79,SSE,161,5.0,9.0,73,0.00,,,0.00,0,WeatherCatV1.21B27,2013-08-22 03:40:00,
2013-08-21 22:41:00,78.7,69.3,29.79,South,185,2.0,9.0,73,0.00,,,0.00,0,WeatherCatV1.21B27,2013-08-22 03:41:00,
2013-08-21 22:42:00,78.7,69.3,29.79,South,180,1.0,12.0,73,0.00,,,0.00,0,WeatherCatV1.21B27,2013-08-22 03:42:00,
2013-08-21 22:45:00,78.7,68.9,29.79,SSW,194,7.0,11.0,72,0.00,,,0.00,0,WeatherCatV1.21B27,2013-08-22 03:45:00,
2013-08-21 22:46:00,78.7,68.9,29.79,SSW,195,8.0,16.0,72,0.00,,,0.00,0,WeatherCatV1.21B27,2013-08-22 03:46:00,
2013-08-21 22:47:00,78.7,68.5,29.78,SW,217,4.0,16.0,71,0.00,,,0.00,0,WeatherCatV1.21B27,2013-08-22 03:47:00,
2013-08-21 22:48:00,78.9,68.7,29.78,South,184,7.0,15.0,71,0.00,,,0.00,0,WeatherCatV1.21B27,2013-08-22 03:48:00,
2013-08-21 22:50:00,79.0,68.8,29.78,South,188,5.0,11.0,71,0.00,,,0.00,0,WeatherCatV1.21B27,2013-08-22 03:50:00,
2013-08-21 22:51:00,79.1,68.9,29.79,SSW,200,10.0,10.0,71,0.00,,,0.00,0,WeatherCatV1.21B27,2013-08-22 03:51:00,
2013-08-21 22:52:00,79.1,68.4,29.79,SW,236,3.0,11.0,70,0.00,,,0.00,0,WeatherCatV1.21B27,2013-08-22 03:52:00,
2013-08-21 22:54:00,79.1,68.4,29.79,SSE,160,3.0,7.0,70,0.00,,,0.00,0,WeatherCatV1.21B27,2013-08-22 03:54:00,
2013-08-21 22:55:00,79.1,68.4,29.79,South,187,11.0,11.0,70,0.00,,,0.00,0,WeatherCatV1.21B27,2013-08-22 03:55:00,
2013-08-21 22:56:00,79.2,68.6,29.79,South,175,2.0,11.0,70,0.00,,,0.00,0,WeatherCatV1.21B27,2013-08-22 03:56:00,
2013-08-21 22:57:00,79.2,68.6,29.79,SSE,168,10.0,19.0,70,0.00,,,0.00,0,WeatherCatV1.21B27,2013-08-22 03:57:00,
2013-08-21 23:00:00,79.4,68.3,29.79,SSW,206,2.0,10.0,69,0.00,,,0.00,0,WeatherCatV1.21B27,2013-08-22 04:00:00,
2013-08-21 23:01:00,79.4,68.3,29.79,SSW,206,0.0,10.0,69,0.00,,,0.00,0,WeatherCatV1.21B27,2013-08-22 04:01:00,
2013-08-21 23:06:00,79.4,67.9,29.79,South,178,1.0,9.0,68,0.00,,,0.00,0,WeatherCatV1.21B27,2013-08-22 04:06:00,
2013-08-21 23:11:00,79.3,67.8,29.80,SSW,194,6.0,6.0,68,0.00,,,0.00,0,WeatherCatV1.21B27,2013-08-22 04:11:00,
2013-08-21 23:16:00,79.3,67.8,29.80,South,179,1.0,5.0,68,0.00,,,0.00,0,WeatherCatV1.21B27,2013-08-22 04:16:00,
2013-08-21 23:17:00,79.3,67.8,29.80,SSE,159,5.0,9.0,68,0.00,,,0.00,0,WeatherCatV1.21B27,2013-08-22 04:17:00,
2013-08-21 23:21:00,79.5,67.1,29.81,South,191,3.0,11.0,66,0.00,,,0.00,0,WeatherCatV1.21B27,2013-08-22 04:21:00,
2013-08-21 23:22:00,79.6,67.2,29.81,SSW,192,10.0,10.0,66,0.00,,,0.00,0,WeatherCatV1.21B27,2013-08-22 04:22:00,
2013-08-21 23:26:00,79.8,67.0,29.81,SSE,167,9.0,10.0,65,0.00,,,0.00,0,WeatherCatV1.21B27,2013-08-22 04:26:00,
2013-08-21 23:27:00,79.8,67.0,29.81,SW,234,9.0,10.0,65,0.00,,,0.00,0,WeatherCatV1.21B27,2013-08-22 04:27:00,
2013-08-21 23:31:00,80.2,66.4,29.82,SSW,205,6.0,10.0,63,0.00,,,0.00,0,WeatherCatV1.21B27,2013-08-22 04:31:00,
2013-08-21 23:32:00,80.3,66.5,29.82,SSW,196,3.0,10.0,63,0.00,,,0.00,0,WeatherCatV1.21B27,2013-08-22 04:32:00,
2013-08-21 23:33:00,80.3,66.5,29.82,SSW,209,5.0,11.0,63,0.00,,,0.00,0,WeatherCatV1.21B27,2013-08-22 04:33:00,
2013-08-21 23:36:00,80.5,66.3,29.82,SW,218,2.0,9.0,62,0.00,,,0.00,0,WeatherCatV1.21B27,2013-08-22 04:36:00,
2013-08-21 23:37:00,80.5,66.3,29.82,SW,216,11.0,13.0,62,0.00,,,0.00,0,WeatherCatV1.21B27,2013-08-22 04:37:00,
2013-08-21 23:38:00,80.5,66.3,29.82,South,179,1.0,13.0,62,0.00,,,0.00,0,WeatherCatV1.21B27,2013-08-22 04:38:00,
2013-08-21 23:41:00,80.6,65.9,29.82,SSW,197,4.0,15.0,61,0.00,,,0.00,0,WeatherCatV1.21B27,2013-08-22 04:41:00,
2013-08-21 23:42:00,80.6,65.9,29.82,South,189,6.0,15.0,61,0.00,,,0.00,0,WeatherCatV1.21B27,2013-08-22 04:42:00,
2013-08-21 23:43:00,80.7,66.0,29.82,South,190,1.0,15.0,61,0.00,,,0.00,0,WeatherCatV1.21B27,2013-08-22 04:43:00,
2013-08-21 23:46:00,80.8,66.1,29.83,SSW,209,7.0,13.0,61,0.00,,,0.00,0,WeatherCatV1.21B27,2013-08-22 04:46:00,
2013-08-21 23:47:00,80.8,66.1,29.83,SW,231,5.0,13.0,61,0.00,,,0.00,0,WeatherCatV1.21B27,2013-08-22 04:47:00,
2013-08-21 23:48:00,80.8,66.1,29.83,SSE,161,3.0,8.0,61,0.00,,,0.00,0,WeatherCatV1.21B27,2013-08-22 04:48:00,
2013-08-21 23:52:00,80.9,65.7,29.83,WSW,246,8.0,15.0,60,0.00,,,0.00,0,WeatherCatV1.21B27,2013-08-22 04:52:00,
2013-08-21 23:53:00,80.9,65.7,29.83,SSW,207,6.0,12.0,60,0.00,,,0.00,0,WeatherCatV1.21B27,2013-08-22 04:53:00,
2013-08-21 23:57:00,81.0,65.8,29.83,SSW,192,17.0,17.0,60,0.00,,,0.00,0,WeatherCatV1.21B27,2013-08-22 04:57:00,
2013-08-21 23:58:00,81.0,65.8,29.83,South,179,4.0,17.0,60,0.00,,,0.00,0,WeatherCatV1.21B27,2013-08-22 04:58:00,
2013-08-21 23:59:00,81.0,65.3,29.83,South,183,5.0,17.0,59,0.00,,,0.00,0,WeatherCatV1.21B27,2013-08-22 04:59:00,